﻿<?xml version="1.0" encoding="UTF-8" standalone="no" ?>
<gpx xmlns="http://www.topografix.com/GPX/1/1" creator="CompeGPS" version="1.1" xmlns:xsi="http://www.w3.org/2001/XMLSchema-instance" xsi:schemaLocation="http://www.topografix.com/GPX/1/1 http://www.topografix.com/GPX/1/1/gpx.xsd http://www.garmin.com/xmlschemas/GpxExtensions/v3 http://www.garmin.com/xmlschemas/GpxExtensionsv3.xsd http://www.garmin.com/xmlschemas/TrackPointExtension/v1 http://www.garmin.com/xmlschemas/TrackPointExtensionv1.xsd" xmlns:gpxtpx="http://www.garmin.com/xmlschemas/TrackPointExtension/v1">
  <metadata>
    <link href="http://www.compegps.com">
      <text>CompeGPS TEAM, SL</text>
    </link>
    <time>2015-02-28T13:58:34Z</time>
    <bounds maxlat="42.841048" maxlon="0.143883" minlat="42.830378" minlon="0.114113"/>
  </metadata>
  <trk>
    <name>arete_des_trois_conseillers</name>
    <trkseg>
      <trkpt lat="42.840526" lon="0.143865">
        <ele>2164.0</ele>
        <time>2009-10-07T03:42:43Z</time>
      </trkpt>
      <trkpt lat="42.840526" lon="0.143739">
        <ele>2166.0</ele>
        <time>2009-10-07T03:42:56Z</time>
      </trkpt>
      <trkpt lat="42.840453" lon="0.143668">
        <ele>2166.0</ele>
        <time>2009-10-07T03:43:21Z</time>
      </trkpt>
      <trkpt lat="42.840447" lon="0.143533">
        <ele>2166.0</ele>
        <time>2009-10-07T03:43:41Z</time>
      </trkpt>
      <trkpt lat="42.840500" lon="0.143434">
        <ele>2166.0</ele>
        <time>2009-10-07T03:43:55Z</time>
      </trkpt>
      <trkpt lat="42.840546" lon="0.143326">
        <ele>2161.0</ele>
        <time>2009-10-07T03:44:07Z</time>
      </trkpt>
      <trkpt lat="42.840592" lon="0.143218">
        <ele>2161.0</ele>
        <time>2009-10-07T03:44:16Z</time>
      </trkpt>
      <trkpt lat="42.840619" lon="0.143093">
        <ele>2161.0</ele>
        <time>2009-10-07T03:44:29Z</time>
      </trkpt>
      <trkpt lat="42.840526" lon="0.143075">
        <ele>2161.0</ele>
        <time>2009-10-07T03:44:46Z</time>
      </trkpt>
      <trkpt lat="42.840427" lon="0.143102">
        <ele>2161.0</ele>
        <time>2009-10-07T03:44:54Z</time>
      </trkpt>
      <trkpt lat="42.840341" lon="0.143138">
        <ele>2161.0</ele>
        <time>2009-10-07T03:45:03Z</time>
      </trkpt>
      <trkpt lat="42.840249" lon="0.143165">
        <ele>2161.0</ele>
        <time>2009-10-07T03:45:11Z</time>
      </trkpt>
      <trkpt lat="42.840156" lon="0.143173">
        <ele>2161.0</ele>
        <time>2009-10-07T03:45:22Z</time>
      </trkpt>
      <trkpt lat="42.840063" lon="0.143191">
        <ele>2161.0</ele>
        <time>2009-10-07T03:45:31Z</time>
      </trkpt>
      <trkpt lat="42.839971" lon="0.143191">
        <ele>2161.0</ele>
        <time>2009-10-07T03:45:40Z</time>
      </trkpt>
      <trkpt lat="42.839892" lon="0.143254">
        <ele>2161.0</ele>
        <time>2009-10-07T03:46:05Z</time>
      </trkpt>
      <trkpt lat="42.839766" lon="0.143245">
        <ele>2161.0</ele>
        <time>2009-10-07T03:46:16Z</time>
      </trkpt>
      <trkpt lat="42.839693" lon="0.143326">
        <ele>2161.0</ele>
        <time>2009-10-07T03:46:26Z</time>
      </trkpt>
      <trkpt lat="42.839594" lon="0.143308">
        <ele>2161.0</ele>
        <time>2009-10-07T03:47:19Z</time>
      </trkpt>
      <trkpt lat="42.839502" lon="0.143317">
        <ele>2155.0</ele>
        <time>2009-10-07T03:47:26Z</time>
      </trkpt>
      <trkpt lat="42.839435" lon="0.143407">
        <ele>2155.0</ele>
        <time>2009-10-07T03:47:35Z</time>
      </trkpt>
      <trkpt lat="42.839383" lon="0.143506">
        <ele>2155.0</ele>
        <time>2009-10-07T03:47:41Z</time>
      </trkpt>
      <trkpt lat="42.839336" lon="0.143614">
        <ele>2163.0</ele>
        <time>2009-10-07T03:47:47Z</time>
      </trkpt>
      <trkpt lat="42.839257" lon="0.143677">
        <ele>2163.0</ele>
        <time>2009-10-07T03:47:54Z</time>
      </trkpt>
      <trkpt lat="42.839171" lon="0.143605">
        <ele>2163.0</ele>
        <time>2009-10-07T03:48:03Z</time>
      </trkpt>
      <trkpt lat="42.839118" lon="0.143497">
        <ele>2155.0</ele>
        <time>2009-10-07T03:48:10Z</time>
      </trkpt>
      <trkpt lat="42.839065" lon="0.143398">
        <ele>2155.0</ele>
        <time>2009-10-07T03:48:17Z</time>
      </trkpt>
      <trkpt lat="42.838999" lon="0.143308">
        <ele>2149.0</ele>
        <time>2009-10-07T03:48:24Z</time>
      </trkpt>
      <trkpt lat="42.838940" lon="0.143209">
        <ele>2149.0</ele>
        <time>2009-10-07T03:48:33Z</time>
      </trkpt>
      <trkpt lat="42.838860" lon="0.143120">
        <ele>2149.0</ele>
        <time>2009-10-07T03:48:43Z</time>
      </trkpt>
      <trkpt lat="42.838794" lon="0.143012">
        <ele>2149.0</ele>
        <time>2009-10-07T03:48:49Z</time>
      </trkpt>
      <trkpt lat="42.838748" lon="0.142895">
        <ele>2149.0</ele>
        <time>2009-10-07T03:48:56Z</time>
      </trkpt>
      <trkpt lat="42.838715" lon="0.142778">
        <ele>2149.0</ele>
        <time>2009-10-07T03:49:04Z</time>
      </trkpt>
      <trkpt lat="42.838702" lon="0.142652">
        <ele>2149.0</ele>
        <time>2009-10-07T03:49:12Z</time>
      </trkpt>
      <trkpt lat="42.838708" lon="0.142527">
        <ele>2149.0</ele>
        <time>2009-10-07T03:49:19Z</time>
      </trkpt>
      <trkpt lat="42.838708" lon="0.142401">
        <ele>2149.0</ele>
        <time>2009-10-07T03:49:27Z</time>
      </trkpt>
      <trkpt lat="42.838741" lon="0.142284">
        <ele>2149.0</ele>
        <time>2009-10-07T03:49:34Z</time>
      </trkpt>
      <trkpt lat="42.838761" lon="0.142140">
        <ele>2149.0</ele>
        <time>2009-10-07T03:49:43Z</time>
      </trkpt>
      <trkpt lat="42.838741" lon="0.141997">
        <ele>2149.0</ele>
        <time>2009-10-07T03:49:50Z</time>
      </trkpt>
      <trkpt lat="42.838748" lon="0.141862">
        <ele>2158.0</ele>
        <time>2009-10-07T03:49:58Z</time>
      </trkpt>
      <trkpt lat="42.838754" lon="0.141736">
        <ele>2158.0</ele>
        <time>2009-10-07T03:50:05Z</time>
      </trkpt>
      <trkpt lat="42.838741" lon="0.141601">
        <ele>2158.0</ele>
        <time>2009-10-07T03:50:12Z</time>
      </trkpt>
      <trkpt lat="42.838741" lon="0.141476">
        <ele>2158.0</ele>
        <time>2009-10-07T03:50:20Z</time>
      </trkpt>
      <trkpt lat="42.838695" lon="0.141368">
        <ele>2158.0</ele>
        <time>2009-10-07T03:50:29Z</time>
      </trkpt>
      <trkpt lat="42.838629" lon="0.141269">
        <ele>2152.0</ele>
        <time>2009-10-07T03:50:35Z</time>
      </trkpt>
      <trkpt lat="42.838583" lon="0.141161">
        <ele>2152.0</ele>
        <time>2009-10-07T03:50:45Z</time>
      </trkpt>
      <trkpt lat="42.838503" lon="0.141089">
        <ele>2152.0</ele>
        <time>2009-10-07T03:50:53Z</time>
      </trkpt>
      <trkpt lat="42.838411" lon="0.141044">
        <ele>2152.0</ele>
        <time>2009-10-07T03:51:00Z</time>
      </trkpt>
      <trkpt lat="42.838325" lon="0.140991">
        <ele>2152.0</ele>
        <time>2009-10-07T03:51:07Z</time>
      </trkpt>
      <trkpt lat="42.838259" lon="0.140901">
        <ele>2152.0</ele>
        <time>2009-10-07T03:51:14Z</time>
      </trkpt>
      <trkpt lat="42.838219" lon="0.140775">
        <ele>2152.0</ele>
        <time>2009-10-07T03:51:23Z</time>
      </trkpt>
      <trkpt lat="42.838166" lon="0.140640">
        <ele>2152.0</ele>
        <time>2009-10-07T03:51:31Z</time>
      </trkpt>
      <trkpt lat="42.838126" lon="0.140523">
        <ele>2152.0</ele>
        <time>2009-10-07T03:51:38Z</time>
      </trkpt>
      <trkpt lat="42.838074" lon="0.140416">
        <ele>2152.0</ele>
        <time>2009-10-07T03:51:44Z</time>
      </trkpt>
      <trkpt lat="42.838027" lon="0.140308">
        <ele>2147.0</ele>
        <time>2009-10-07T03:51:50Z</time>
      </trkpt>
      <trkpt lat="42.837968" lon="0.140200">
        <ele>2147.0</ele>
        <time>2009-10-07T03:51:56Z</time>
      </trkpt>
      <trkpt lat="42.837941" lon="0.140083">
        <ele>2147.0</ele>
        <time>2009-10-07T03:52:03Z</time>
      </trkpt>
      <trkpt lat="42.837895" lon="0.139975">
        <ele>2147.0</ele>
        <time>2009-10-07T03:52:11Z</time>
      </trkpt>
      <trkpt lat="42.837803" lon="0.139949">
        <ele>2156.0</ele>
        <time>2009-10-07T03:52:48Z</time>
      </trkpt>
      <trkpt lat="42.837717" lon="0.139984">
        <ele>2156.0</ele>
        <time>2009-10-07T03:53:02Z</time>
      </trkpt>
      <trkpt lat="42.837684" lon="0.139868">
        <ele>2156.0</ele>
        <time>2009-10-07T03:53:15Z</time>
      </trkpt>
      <trkpt lat="42.837617" lon="0.139769">
        <ele>2156.0</ele>
        <time>2009-10-07T03:53:24Z</time>
      </trkpt>
      <trkpt lat="42.837604" lon="0.139634">
        <ele>2156.0</ele>
        <time>2009-10-07T03:53:37Z</time>
      </trkpt>
      <trkpt lat="42.837604" lon="0.139508">
        <ele>2163.0</ele>
        <time>2009-10-07T03:53:57Z</time>
      </trkpt>
      <trkpt lat="42.837518" lon="0.139454">
        <ele>2163.0</ele>
        <time>2009-10-07T03:54:28Z</time>
      </trkpt>
      <trkpt lat="42.837439" lon="0.139392">
        <ele>2169.0</ele>
        <time>2009-10-07T03:54:41Z</time>
      </trkpt>
      <trkpt lat="42.837346" lon="0.139383">
        <ele>2169.0</ele>
        <time>2009-10-07T03:55:18Z</time>
      </trkpt>
      <trkpt lat="42.837247" lon="0.139356">
        <ele>2169.0</ele>
        <time>2009-10-07T03:55:30Z</time>
      </trkpt>
      <trkpt lat="42.837155" lon="0.139329">
        <ele>2178.0</ele>
        <time>2009-10-07T03:55:44Z</time>
      </trkpt>
      <trkpt lat="42.837075" lon="0.139392">
        <ele>2178.0</ele>
        <time>2009-10-07T03:56:06Z</time>
      </trkpt>
      <trkpt lat="42.836983" lon="0.139392">
        <ele>2178.0</ele>
        <time>2009-10-07T03:56:25Z</time>
      </trkpt>
      <trkpt lat="42.836903" lon="0.139463">
        <ele>2193.0</ele>
        <time>2009-10-07T03:56:43Z</time>
      </trkpt>
      <trkpt lat="42.836811" lon="0.139436">
        <ele>2193.0</ele>
        <time>2009-10-07T03:56:56Z</time>
      </trkpt>
      <trkpt lat="42.836718" lon="0.139401">
        <ele>2188.0</ele>
        <time>2009-10-07T03:57:08Z</time>
      </trkpt>
      <trkpt lat="42.836626" lon="0.139410">
        <ele>2188.0</ele>
        <time>2009-10-07T03:57:26Z</time>
      </trkpt>
      <trkpt lat="42.836533" lon="0.139436">
        <ele>2196.0</ele>
        <time>2009-10-07T03:58:00Z</time>
      </trkpt>
      <trkpt lat="42.836447" lon="0.139401">
        <ele>2196.0</ele>
        <time>2009-10-07T03:58:09Z</time>
      </trkpt>
      <trkpt lat="42.836355" lon="0.139374">
        <ele>2196.0</ele>
        <time>2009-10-07T03:58:23Z</time>
      </trkpt>
      <trkpt lat="42.836282" lon="0.139302">
        <ele>2202.0</ele>
        <time>2009-10-07T03:58:39Z</time>
      </trkpt>
      <trkpt lat="42.836196" lon="0.139338">
        <ele>2202.0</ele>
        <time>2009-10-07T03:58:51Z</time>
      </trkpt>
      <trkpt lat="42.836103" lon="0.139329">
        <ele>2202.0</ele>
        <time>2009-10-07T03:59:09Z</time>
      </trkpt>
      <trkpt lat="42.836051" lon="0.139212">
        <ele>2202.0</ele>
        <time>2009-10-07T03:59:25Z</time>
      </trkpt>
      <trkpt lat="42.835958" lon="0.139185">
        <ele>2209.0</ele>
        <time>2009-10-07T03:59:45Z</time>
      </trkpt>
      <trkpt lat="42.835879" lon="0.139104">
        <ele>2209.0</ele>
        <time>2009-10-07T03:59:53Z</time>
      </trkpt>
      <trkpt lat="42.835859" lon="0.138969">
        <ele>2209.0</ele>
        <time>2009-10-07T04:00:18Z</time>
      </trkpt>
      <trkpt lat="42.835813" lon="0.138862">
        <ele>2209.0</ele>
        <time>2009-10-07T04:00:29Z</time>
      </trkpt>
      <trkpt lat="42.835760" lon="0.138745">
        <ele>2209.0</ele>
        <time>2009-10-07T04:00:42Z</time>
      </trkpt>
      <trkpt lat="42.835746" lon="0.138619">
        <ele>2209.0</ele>
        <time>2009-10-07T04:00:55Z</time>
      </trkpt>
      <trkpt lat="42.835700" lon="0.138502">
        <ele>2209.0</ele>
        <time>2009-10-07T04:01:09Z</time>
      </trkpt>
      <trkpt lat="42.835634" lon="0.138412">
        <ele>2209.0</ele>
        <time>2009-10-07T04:01:22Z</time>
      </trkpt>
      <trkpt lat="42.835581" lon="0.138296">
        <ele>2215.0</ele>
        <time>2009-10-07T04:01:36Z</time>
      </trkpt>
      <trkpt lat="42.835555" lon="0.138179">
        <ele>2215.0</ele>
        <time>2009-10-07T04:01:52Z</time>
      </trkpt>
      <trkpt lat="42.835528" lon="0.138062">
        <ele>2224.0</ele>
        <time>2009-10-07T04:02:17Z</time>
      </trkpt>
      <trkpt lat="42.835475" lon="0.137954">
        <ele>2224.0</ele>
        <time>2009-10-07T04:02:40Z</time>
      </trkpt>
      <trkpt lat="42.835422" lon="0.137855">
        <ele>2239.0</ele>
        <time>2009-10-07T04:03:08Z</time>
      </trkpt>
      <trkpt lat="42.835422" lon="0.137730">
        <ele>2246.0</ele>
        <time>2009-10-07T04:03:43Z</time>
      </trkpt>
      <trkpt lat="42.835350" lon="0.137658">
        <ele>2238.0</ele>
        <time>2009-10-07T04:03:55Z</time>
      </trkpt>
      <trkpt lat="42.835290" lon="0.137676">
        <ele>2252.0</ele>
        <time>2009-10-07T04:06:12Z</time>
      </trkpt>
      <trkpt lat="42.835251" lon="0.137793">
        <ele>2252.0</ele>
        <time>2009-10-07T04:06:24Z</time>
      </trkpt>
      <trkpt lat="42.835184" lon="0.137882">
        <ele>2252.0</ele>
        <time>2009-10-07T04:06:42Z</time>
      </trkpt>
      <trkpt lat="42.835105" lon="0.137945">
        <ele>2252.0</ele>
        <time>2009-10-07T04:07:18Z</time>
      </trkpt>
      <trkpt lat="42.835132" lon="0.138062">
        <ele>2252.0</ele>
        <time>2009-10-07T04:07:47Z</time>
      </trkpt>
      <trkpt lat="42.835085" lon="0.138170">
        <ele>2252.0</ele>
        <time>2009-10-07T04:08:14Z</time>
      </trkpt>
      <trkpt lat="42.835019" lon="0.138260">
        <ele>2244.0</ele>
        <time>2009-10-07T04:08:39Z</time>
      </trkpt>
      <trkpt lat="42.834927" lon="0.138260">
        <ele>2250.0</ele>
        <time>2009-10-07T04:09:27Z</time>
      </trkpt>
      <trkpt lat="42.834841" lon="0.138188">
        <ele>2255.0</ele>
        <time>2009-10-07T04:09:56Z</time>
      </trkpt>
      <trkpt lat="42.834748" lon="0.138179">
        <ele>2255.0</ele>
        <time>2009-10-07T04:10:21Z</time>
      </trkpt>
      <trkpt lat="42.834662" lon="0.138215">
        <ele>2261.0</ele>
        <time>2009-10-07T04:11:04Z</time>
      </trkpt>
      <trkpt lat="42.834576" lon="0.138170">
        <ele>2261.0</ele>
        <time>2009-10-07T04:11:26Z</time>
      </trkpt>
      <trkpt lat="42.834517" lon="0.138071">
        <ele>2261.0</ele>
        <time>2009-10-07T04:12:08Z</time>
      </trkpt>
      <trkpt lat="42.834444" lon="0.137999">
        <ele>2273.0</ele>
        <time>2009-10-07T04:13:16Z</time>
      </trkpt>
      <trkpt lat="42.834371" lon="0.138071">
        <ele>2273.0</ele>
        <time>2009-10-07T04:13:39Z</time>
      </trkpt>
      <trkpt lat="42.834285" lon="0.138035">
        <ele>2273.0</ele>
        <time>2009-10-07T04:14:05Z</time>
      </trkpt>
      <trkpt lat="42.834232" lon="0.138134">
        <ele>2279.0</ele>
        <time>2009-10-07T04:14:17Z</time>
      </trkpt>
      <trkpt lat="42.834140" lon="0.138089">
        <ele>2279.0</ele>
        <time>2009-10-07T04:14:48Z</time>
      </trkpt>
      <trkpt lat="42.834067" lon="0.138008">
        <ele>2279.0</ele>
        <time>2009-10-07T04:15:07Z</time>
      </trkpt>
      <trkpt lat="42.833981" lon="0.137963">
        <ele>2279.0</ele>
        <time>2009-10-07T04:15:25Z</time>
      </trkpt>
      <trkpt lat="42.833889" lon="0.137972">
        <ele>2288.0</ele>
        <time>2009-10-07T04:15:50Z</time>
      </trkpt>
      <trkpt lat="42.833803" lon="0.137927">
        <ele>2281.0</ele>
        <time>2009-10-07T04:16:05Z</time>
      </trkpt>
      <trkpt lat="42.833670" lon="0.137999">
        <ele>2289.0</ele>
        <time>2009-10-07T04:16:29Z</time>
      </trkpt>
      <trkpt lat="42.833585" lon="0.137963">
        <ele>2289.0</ele>
        <time>2009-10-07T04:16:44Z</time>
      </trkpt>
      <trkpt lat="42.833505" lon="0.138035">
        <ele>2301.0</ele>
        <time>2009-10-07T04:18:17Z</time>
      </trkpt>
      <trkpt lat="42.833419" lon="0.137990">
        <ele>2294.0</ele>
        <time>2009-10-07T04:19:59Z</time>
      </trkpt>
      <trkpt lat="42.833333" lon="0.138026">
        <ele>2294.0</ele>
        <time>2009-10-07T04:20:16Z</time>
      </trkpt>
      <trkpt lat="42.833247" lon="0.138071">
        <ele>2294.0</ele>
        <time>2009-10-07T04:20:40Z</time>
      </trkpt>
      <trkpt lat="42.833175" lon="0.138161">
        <ele>2301.0</ele>
        <time>2009-10-07T04:20:52Z</time>
      </trkpt>
      <trkpt lat="42.833082" lon="0.138179">
        <ele>2301.0</ele>
        <time>2009-10-07T04:21:16Z</time>
      </trkpt>
      <trkpt lat="42.832996" lon="0.138143">
        <ele>2310.0</ele>
        <time>2009-10-07T04:21:50Z</time>
      </trkpt>
      <trkpt lat="42.832904" lon="0.138134">
        <ele>2317.0</ele>
        <time>2009-10-07T04:22:07Z</time>
      </trkpt>
      <trkpt lat="42.832831" lon="0.138053">
        <ele>2317.0</ele>
        <time>2009-10-07T04:22:27Z</time>
      </trkpt>
      <trkpt lat="42.832758" lon="0.137963">
        <ele>2317.0</ele>
        <time>2009-10-07T04:22:48Z</time>
      </trkpt>
      <trkpt lat="42.832685" lon="0.137891">
        <ele>2324.0</ele>
        <time>2009-10-07T04:23:09Z</time>
      </trkpt>
      <trkpt lat="42.832613" lon="0.137811">
        <ele>2324.0</ele>
        <time>2009-10-07T04:23:27Z</time>
      </trkpt>
      <trkpt lat="42.832560" lon="0.137703">
        <ele>2330.0</ele>
        <time>2009-10-07T04:23:57Z</time>
      </trkpt>
      <trkpt lat="42.832441" lon="0.137739">
        <ele>2339.0</ele>
        <time>2009-10-07T04:24:46Z</time>
      </trkpt>
      <trkpt lat="42.832375" lon="0.137649">
        <ele>2330.0</ele>
        <time>2009-10-07T04:25:11Z</time>
      </trkpt>
      <trkpt lat="42.832308" lon="0.137559">
        <ele>2347.0</ele>
        <time>2009-10-07T04:25:45Z</time>
      </trkpt>
      <trkpt lat="42.832223" lon="0.137505">
        <ele>2347.0</ele>
        <time>2009-10-07T04:26:11Z</time>
      </trkpt>
      <trkpt lat="42.832130" lon="0.137487">
        <ele>2358.0</ele>
        <time>2009-10-07T04:26:52Z</time>
      </trkpt>
      <trkpt lat="42.831998" lon="0.137406">
        <ele>2365.0</ele>
        <time>2009-10-07T04:27:45Z</time>
      </trkpt>
      <trkpt lat="42.831912" lon="0.137352">
        <ele>2365.0</ele>
        <time>2009-10-07T04:28:16Z</time>
      </trkpt>
      <trkpt lat="42.831826" lon="0.137307">
        <ele>2373.0</ele>
        <time>2009-10-07T04:28:53Z</time>
      </trkpt>
      <trkpt lat="42.831740" lon="0.137272">
        <ele>2384.0</ele>
        <time>2009-10-07T04:29:54Z</time>
      </trkpt>
      <trkpt lat="42.831667" lon="0.137343">
        <ele>2384.0</ele>
        <time>2009-10-07T04:30:50Z</time>
      </trkpt>
      <trkpt lat="42.831594" lon="0.137415">
        <ele>2392.0</ele>
        <time>2009-10-07T04:31:20Z</time>
      </trkpt>
      <trkpt lat="42.831456" lon="0.137451">
        <ele>2398.0</ele>
        <time>2009-10-07T04:32:03Z</time>
      </trkpt>
      <trkpt lat="42.831370" lon="0.137487">
        <ele>2398.0</ele>
        <time>2009-10-07T04:32:25Z</time>
      </trkpt>
      <trkpt lat="42.831284" lon="0.137451">
        <ele>2388.0</ele>
        <time>2009-10-07T04:32:59Z</time>
      </trkpt>
      <trkpt lat="42.831244" lon="0.137334">
        <ele>2404.0</ele>
        <time>2009-10-07T04:33:46Z</time>
      </trkpt>
      <trkpt lat="42.831158" lon="0.137299">
        <ele>2404.0</ele>
        <time>2009-10-07T04:34:22Z</time>
      </trkpt>
      <trkpt lat="42.831059" lon="0.137281">
        <ele>2412.0</ele>
        <time>2009-10-07T04:35:03Z</time>
      </trkpt>
      <trkpt lat="42.830986" lon="0.137209">
        <ele>2412.0</ele>
        <time>2009-10-07T04:35:35Z</time>
      </trkpt>
      <trkpt lat="42.830940" lon="0.137092">
        <ele>2425.0</ele>
        <time>2009-10-07T04:36:05Z</time>
      </trkpt>
      <trkpt lat="42.830927" lon="0.136966">
        <ele>2431.0</ele>
        <time>2009-10-07T04:36:37Z</time>
      </trkpt>
      <trkpt lat="42.830861" lon="0.136876">
        <ele>2439.0</ele>
        <time>2009-10-07T04:37:21Z</time>
      </trkpt>
      <trkpt lat="42.830768" lon="0.136894">
        <ele>2444.0</ele>
        <time>2009-10-07T04:38:05Z</time>
      </trkpt>
      <trkpt lat="42.830682" lon="0.136930">
        <ele>2444.0</ele>
        <time>2009-10-07T04:38:26Z</time>
      </trkpt>
      <trkpt lat="42.830589" lon="0.136903">
        <ele>2452.0</ele>
        <time>2009-10-07T04:38:51Z</time>
      </trkpt>
      <trkpt lat="42.830556" lon="0.136786">
        <ele>2452.0</ele>
        <time>2009-10-07T04:39:34Z</time>
      </trkpt>
      <trkpt lat="42.830444" lon="0.136715">
        <ele>2461.0</ele>
        <time>2009-10-07T04:46:05Z</time>
      </trkpt>
      <trkpt lat="42.830477" lon="0.136598">
        <ele>2461.0</ele>
        <time>2009-10-07T04:46:20Z</time>
      </trkpt>
      <trkpt lat="42.830431" lon="0.136490">
        <ele>2461.0</ele>
        <time>2009-10-07T04:46:46Z</time>
      </trkpt>
      <trkpt lat="42.830470" lon="0.136364">
        <ele>2452.0</ele>
        <time>2009-10-07T04:49:45Z</time>
      </trkpt>
      <trkpt lat="42.830484" lon="0.136230">
        <ele>2458.0</ele>
        <time>2009-10-07T04:49:59Z</time>
      </trkpt>
      <trkpt lat="42.830484" lon="0.136104">
        <ele>2458.0</ele>
        <time>2009-10-07T04:50:28Z</time>
      </trkpt>
      <trkpt lat="42.830464" lon="0.135978">
        <ele>2437.0</ele>
        <time>2009-10-07T04:53:32Z</time>
      </trkpt>
      <trkpt lat="42.830384" lon="0.136050">
        <ele>2426.0</ele>
        <time>2009-10-07T04:55:30Z</time>
      </trkpt>
      <trkpt lat="42.830378" lon="0.135924">
        <ele>2420.0</ele>
        <time>2009-10-07T04:56:18Z</time>
      </trkpt>
      <trkpt lat="42.830404" lon="0.135798">
        <ele>2420.0</ele>
        <time>2009-10-07T04:56:47Z</time>
      </trkpt>
      <trkpt lat="42.830457" lon="0.135700">
        <ele>2420.0</ele>
        <time>2009-10-07T04:57:51Z</time>
      </trkpt>
      <trkpt lat="42.830484" lon="0.135583">
        <ele>2413.0</ele>
        <time>2009-10-07T04:58:22Z</time>
      </trkpt>
      <trkpt lat="42.830543" lon="0.135484">
        <ele>2413.0</ele>
        <time>2009-10-07T04:58:44Z</time>
      </trkpt>
      <trkpt lat="42.830596" lon="0.135376">
        <ele>2404.0</ele>
        <time>2009-10-07T04:59:04Z</time>
      </trkpt>
      <trkpt lat="42.830616" lon="0.135223">
        <ele>2404.0</ele>
        <time>2009-10-07T04:59:21Z</time>
      </trkpt>
      <trkpt lat="42.830642" lon="0.135098">
        <ele>2404.0</ele>
        <time>2009-10-07T04:59:41Z</time>
      </trkpt>
      <trkpt lat="42.830649" lon="0.134972">
        <ele>2404.0</ele>
        <time>2009-10-07T05:00:17Z</time>
      </trkpt>
      <trkpt lat="42.830695" lon="0.134864">
        <ele>2404.0</ele>
        <time>2009-10-07T05:00:29Z</time>
      </trkpt>
      <trkpt lat="42.830748" lon="0.134765">
        <ele>2404.0</ele>
        <time>2009-10-07T05:00:40Z</time>
      </trkpt>
      <trkpt lat="42.830781" lon="0.134648">
        <ele>2404.0</ele>
        <time>2009-10-07T05:00:51Z</time>
      </trkpt>
      <trkpt lat="42.830801" lon="0.134523">
        <ele>2404.0</ele>
        <time>2009-10-07T05:01:03Z</time>
      </trkpt>
      <trkpt lat="42.830821" lon="0.134388">
        <ele>2404.0</ele>
        <time>2009-10-07T05:01:19Z</time>
      </trkpt>
      <trkpt lat="42.830841" lon="0.134253">
        <ele>2404.0</ele>
        <time>2009-10-07T05:01:31Z</time>
      </trkpt>
      <trkpt lat="42.830854" lon="0.134127">
        <ele>2404.0</ele>
        <time>2009-10-07T05:01:49Z</time>
      </trkpt>
      <trkpt lat="42.830867" lon="0.134002">
        <ele>2404.0</ele>
        <time>2009-10-07T05:02:03Z</time>
      </trkpt>
      <trkpt lat="42.830867" lon="0.133876">
        <ele>2404.0</ele>
        <time>2009-10-07T05:02:16Z</time>
      </trkpt>
      <trkpt lat="42.830874" lon="0.133750">
        <ele>2404.0</ele>
        <time>2009-10-07T05:02:34Z</time>
      </trkpt>
      <trkpt lat="42.830900" lon="0.133624">
        <ele>2404.0</ele>
        <time>2009-10-07T05:02:47Z</time>
      </trkpt>
      <trkpt lat="42.830920" lon="0.133499">
        <ele>2404.0</ele>
        <time>2009-10-07T05:03:02Z</time>
      </trkpt>
      <trkpt lat="42.830933" lon="0.133373">
        <ele>2409.0</ele>
        <time>2009-10-07T05:03:16Z</time>
      </trkpt>
      <trkpt lat="42.830986" lon="0.133274">
        <ele>2403.0</ele>
        <time>2009-10-07T05:03:37Z</time>
      </trkpt>
      <trkpt lat="42.830999" lon="0.133148">
        <ele>2403.0</ele>
        <time>2009-10-07T05:03:54Z</time>
      </trkpt>
      <trkpt lat="42.831006" lon="0.133023">
        <ele>2409.0</ele>
        <time>2009-10-07T05:04:10Z</time>
      </trkpt>
      <trkpt lat="42.830980" lon="0.132906">
        <ele>2419.0</ele>
        <time>2009-10-07T05:04:22Z</time>
      </trkpt>
      <trkpt lat="42.830999" lon="0.132780">
        <ele>2419.0</ele>
        <time>2009-10-07T05:04:37Z</time>
      </trkpt>
      <trkpt lat="42.831013" lon="0.132645">
        <ele>2428.0</ele>
        <time>2009-10-07T05:04:50Z</time>
      </trkpt>
      <trkpt lat="42.831072" lon="0.132546">
        <ele>2428.0</ele>
        <time>2009-10-07T05:05:10Z</time>
      </trkpt>
      <trkpt lat="42.831092" lon="0.132421">
        <ele>2428.0</ele>
        <time>2009-10-07T05:05:25Z</time>
      </trkpt>
      <trkpt lat="42.831145" lon="0.132313">
        <ele>2428.0</ele>
        <time>2009-10-07T05:05:44Z</time>
      </trkpt>
      <trkpt lat="42.831138" lon="0.132178">
        <ele>2428.0</ele>
        <time>2009-10-07T05:05:57Z</time>
      </trkpt>
      <trkpt lat="42.831132" lon="0.132052">
        <ele>2428.0</ele>
        <time>2009-10-07T05:06:20Z</time>
      </trkpt>
      <trkpt lat="42.831165" lon="0.131936">
        <ele>2436.0</ele>
        <time>2009-10-07T05:06:36Z</time>
      </trkpt>
      <trkpt lat="42.831211" lon="0.131864">
        <ele>2423.0</ele>
        <time>2009-10-07T05:07:36Z</time>
      </trkpt>
      <trkpt lat="42.831198" lon="0.131720">
        <ele>2438.0</ele>
        <time>2009-10-07T05:07:50Z</time>
      </trkpt>
      <trkpt lat="42.831198" lon="0.131594">
        <ele>2448.0</ele>
        <time>2009-10-07T05:08:01Z</time>
      </trkpt>
      <trkpt lat="42.831224" lon="0.131477">
        <ele>2448.0</ele>
        <time>2009-10-07T05:08:26Z</time>
      </trkpt>
      <trkpt lat="42.831251" lon="0.131325">
        <ele>2450.0</ele>
        <time>2009-10-07T05:09:26Z</time>
      </trkpt>
      <trkpt lat="42.831244" lon="0.131190">
        <ele>2450.0</ele>
        <time>2009-10-07T05:09:44Z</time>
      </trkpt>
      <trkpt lat="42.831211" lon="0.131064">
        <ele>2463.0</ele>
        <time>2009-10-07T05:09:55Z</time>
      </trkpt>
      <trkpt lat="42.831237" lon="0.130947">
        <ele>2463.0</ele>
        <time>2009-10-07T05:10:22Z</time>
      </trkpt>
      <trkpt lat="42.831218" lon="0.130813">
        <ele>2463.0</ele>
        <time>2009-10-07T05:10:45Z</time>
      </trkpt>
      <trkpt lat="42.831244" lon="0.130696">
        <ele>2468.0</ele>
        <time>2009-10-07T05:11:21Z</time>
      </trkpt>
      <trkpt lat="42.831251" lon="0.130570">
        <ele>2468.0</ele>
        <time>2009-10-07T05:11:47Z</time>
      </trkpt>
      <trkpt lat="42.831317" lon="0.130471">
        <ele>2468.0</ele>
        <time>2009-10-07T05:12:53Z</time>
      </trkpt>
      <trkpt lat="42.831303" lon="0.130346">
        <ele>2479.0</ele>
        <time>2009-10-07T05:13:35Z</time>
      </trkpt>
      <trkpt lat="42.831310" lon="0.130220">
        <ele>2486.0</ele>
        <time>2009-10-07T05:14:06Z</time>
      </trkpt>
      <trkpt lat="42.831323" lon="0.130094">
        <ele>2492.0</ele>
        <time>2009-10-07T05:14:30Z</time>
      </trkpt>
      <trkpt lat="42.831343" lon="0.129968">
        <ele>2492.0</ele>
        <time>2009-10-07T05:14:56Z</time>
      </trkpt>
      <trkpt lat="42.831290" lon="0.129869">
        <ele>2498.0</ele>
        <time>2009-10-07T05:15:21Z</time>
      </trkpt>
      <trkpt lat="42.831264" lon="0.129753">
        <ele>2498.0</ele>
        <time>2009-10-07T05:15:38Z</time>
      </trkpt>
      <trkpt lat="42.831178" lon="0.129708">
        <ele>2498.0</ele>
        <time>2009-10-07T05:16:09Z</time>
      </trkpt>
      <trkpt lat="42.831171" lon="0.129582">
        <ele>2491.0</ele>
        <time>2009-10-07T05:16:34Z</time>
      </trkpt>
      <trkpt lat="42.831178" lon="0.129456">
        <ele>2498.0</ele>
        <time>2009-10-07T05:17:10Z</time>
      </trkpt>
      <trkpt lat="42.831165" lon="0.129330">
        <ele>2498.0</ele>
        <time>2009-10-07T05:17:48Z</time>
      </trkpt>
      <trkpt lat="42.831145" lon="0.129205">
        <ele>2507.0</ele>
        <time>2009-10-07T05:19:08Z</time>
      </trkpt>
      <trkpt lat="42.831112" lon="0.129088">
        <ele>2513.0</ele>
        <time>2009-10-07T05:19:26Z</time>
      </trkpt>
      <trkpt lat="42.831092" lon="0.128962">
        <ele>2513.0</ele>
        <time>2009-10-07T05:19:41Z</time>
      </trkpt>
      <trkpt lat="42.831118" lon="0.128845">
        <ele>2513.0</ele>
        <time>2009-10-07T05:20:10Z</time>
      </trkpt>
      <trkpt lat="42.831085" lon="0.128729">
        <ele>2526.0</ele>
        <time>2009-10-07T05:20:25Z</time>
      </trkpt>
      <trkpt lat="42.831052" lon="0.128612">
        <ele>2536.0</ele>
        <time>2009-10-07T05:20:45Z</time>
      </trkpt>
      <trkpt lat="42.831138" lon="0.128567">
        <ele>2536.0</ele>
        <time>2009-10-07T05:21:11Z</time>
      </trkpt>
      <trkpt lat="42.831165" lon="0.128450">
        <ele>2536.0</ele>
        <time>2009-10-07T05:21:34Z</time>
      </trkpt>
      <trkpt lat="42.831251" lon="0.128405">
        <ele>2536.0</ele>
        <time>2009-10-07T05:22:16Z</time>
      </trkpt>
      <trkpt lat="42.831350" lon="0.128423">
        <ele>2530.0</ele>
        <time>2009-10-07T05:22:45Z</time>
      </trkpt>
      <trkpt lat="42.831376" lon="0.128297">
        <ele>2549.0</ele>
        <time>2009-10-07T05:24:03Z</time>
      </trkpt>
      <trkpt lat="42.831449" lon="0.128226">
        <ele>2557.0</ele>
        <time>2009-10-07T05:24:20Z</time>
      </trkpt>
      <trkpt lat="42.831456" lon="0.128100">
        <ele>2557.0</ele>
        <time>2009-10-07T05:24:40Z</time>
      </trkpt>
      <trkpt lat="42.831456" lon="0.127974">
        <ele>2566.0</ele>
        <time>2009-10-07T05:24:57Z</time>
      </trkpt>
      <trkpt lat="42.831469" lon="0.127848">
        <ele>2566.0</ele>
        <time>2009-10-07T05:25:09Z</time>
      </trkpt>
      <trkpt lat="42.831542" lon="0.127767">
        <ele>2566.0</ele>
        <time>2009-10-07T05:25:30Z</time>
      </trkpt>
      <trkpt lat="42.831568" lon="0.127651">
        <ele>2556.0</ele>
        <time>2009-10-07T05:25:48Z</time>
      </trkpt>
      <trkpt lat="42.831575" lon="0.127525">
        <ele>2556.0</ele>
        <time>2009-10-07T05:26:02Z</time>
      </trkpt>
      <trkpt lat="42.831601" lon="0.127408">
        <ele>2556.0</ele>
        <time>2009-10-07T05:26:15Z</time>
      </trkpt>
      <trkpt lat="42.831627" lon="0.127291">
        <ele>2556.0</ele>
        <time>2009-10-07T05:26:28Z</time>
      </trkpt>
      <trkpt lat="42.831687" lon="0.127192">
        <ele>2556.0</ele>
        <time>2009-10-07T05:26:47Z</time>
      </trkpt>
      <trkpt lat="42.831720" lon="0.127076">
        <ele>2556.0</ele>
        <time>2009-10-07T05:27:12Z</time>
      </trkpt>
      <trkpt lat="42.831746" lon="0.126959">
        <ele>2556.0</ele>
        <time>2009-10-07T05:27:27Z</time>
      </trkpt>
      <trkpt lat="42.831760" lon="0.126833">
        <ele>2556.0</ele>
        <time>2009-10-07T05:27:40Z</time>
      </trkpt>
      <trkpt lat="42.831786" lon="0.126707">
        <ele>2562.0</ele>
        <time>2009-10-07T05:27:53Z</time>
      </trkpt>
      <trkpt lat="42.831806" lon="0.126582">
        <ele>2562.0</ele>
        <time>2009-10-07T05:28:21Z</time>
      </trkpt>
      <trkpt lat="42.831819" lon="0.126456">
        <ele>2562.0</ele>
        <time>2009-10-07T05:28:41Z</time>
      </trkpt>
      <trkpt lat="42.831799" lon="0.126321">
        <ele>2573.0</ele>
        <time>2009-10-07T05:28:54Z</time>
      </trkpt>
      <trkpt lat="42.831826" lon="0.126204">
        <ele>2573.0</ele>
        <time>2009-10-07T05:29:10Z</time>
      </trkpt>
      <trkpt lat="42.831852" lon="0.126088">
        <ele>2573.0</ele>
        <time>2009-10-07T05:29:25Z</time>
      </trkpt>
      <trkpt lat="42.831852" lon="0.125962">
        <ele>2573.0</ele>
        <time>2009-10-07T05:29:40Z</time>
      </trkpt>
      <trkpt lat="42.831846" lon="0.125836">
        <ele>2573.0</ele>
        <time>2009-10-07T05:29:52Z</time>
      </trkpt>
      <trkpt lat="42.831832" lon="0.125710">
        <ele>2573.0</ele>
        <time>2009-10-07T05:30:04Z</time>
      </trkpt>
      <trkpt lat="42.831819" lon="0.125584">
        <ele>2573.0</ele>
        <time>2009-10-07T05:30:14Z</time>
      </trkpt>
      <trkpt lat="42.831799" lon="0.125504">
        <ele>2558.0</ele>
        <time>2009-10-07T05:31:05Z</time>
      </trkpt>
      <trkpt lat="42.831793" lon="0.125378">
        <ele>2566.0</ele>
        <time>2009-10-07T05:31:20Z</time>
      </trkpt>
      <trkpt lat="42.831786" lon="0.125252">
        <ele>2566.0</ele>
        <time>2009-10-07T05:31:35Z</time>
      </trkpt>
      <trkpt lat="42.831760" lon="0.125126">
        <ele>2573.0</ele>
        <time>2009-10-07T05:32:00Z</time>
      </trkpt>
      <trkpt lat="42.831780" lon="0.125001">
        <ele>2573.0</ele>
        <time>2009-10-07T05:32:35Z</time>
      </trkpt>
      <trkpt lat="42.831799" lon="0.124875">
        <ele>2573.0</ele>
        <time>2009-10-07T05:32:47Z</time>
      </trkpt>
      <trkpt lat="42.831819" lon="0.124740">
        <ele>2573.0</ele>
        <time>2009-10-07T05:33:04Z</time>
      </trkpt>
      <trkpt lat="42.831806" lon="0.124614">
        <ele>2578.0</ele>
        <time>2009-10-07T05:33:14Z</time>
      </trkpt>
      <trkpt lat="42.831793" lon="0.124408">
        <ele>2578.0</ele>
        <time>2009-10-07T05:34:25Z</time>
      </trkpt>
      <trkpt lat="42.831760" lon="0.124291">
        <ele>2567.0</ele>
        <time>2009-10-07T05:34:46Z</time>
      </trkpt>
      <trkpt lat="42.831713" lon="0.124183">
        <ele>2567.0</ele>
        <time>2009-10-07T05:34:57Z</time>
      </trkpt>
      <trkpt lat="42.831661" lon="0.124075">
        <ele>2567.0</ele>
        <time>2009-10-07T05:35:20Z</time>
      </trkpt>
      <trkpt lat="42.831634" lon="0.123941">
        <ele>2574.0</ele>
        <time>2009-10-07T05:35:38Z</time>
      </trkpt>
      <trkpt lat="42.831608" lon="0.123824">
        <ele>2574.0</ele>
        <time>2009-10-07T05:35:56Z</time>
      </trkpt>
      <trkpt lat="42.831581" lon="0.123707">
        <ele>2574.0</ele>
        <time>2009-10-07T05:36:21Z</time>
      </trkpt>
      <trkpt lat="42.831542" lon="0.123590">
        <ele>2574.0</ele>
        <time>2009-10-07T05:36:38Z</time>
      </trkpt>
      <trkpt lat="42.831495" lon="0.123482">
        <ele>2582.0</ele>
        <time>2009-10-07T05:36:50Z</time>
      </trkpt>
      <trkpt lat="42.831469" lon="0.123357">
        <ele>2582.0</ele>
        <time>2009-10-07T05:37:06Z</time>
      </trkpt>
      <trkpt lat="42.831482" lon="0.123231">
        <ele>2582.0</ele>
        <time>2009-10-07T05:37:30Z</time>
      </trkpt>
      <trkpt lat="42.831482" lon="0.123105">
        <ele>2582.0</ele>
        <time>2009-10-07T05:37:48Z</time>
      </trkpt>
      <trkpt lat="42.831522" lon="0.122988">
        <ele>2582.0</ele>
        <time>2009-10-07T05:39:40Z</time>
      </trkpt>
      <trkpt lat="42.831594" lon="0.122916">
        <ele>2593.0</ele>
        <time>2009-10-07T05:40:43Z</time>
      </trkpt>
      <trkpt lat="42.831687" lon="0.122943">
        <ele>2602.0</ele>
        <time>2009-10-07T05:41:36Z</time>
      </trkpt>
      <trkpt lat="42.831766" lon="0.122881">
        <ele>2602.0</ele>
        <time>2009-10-07T05:42:14Z</time>
      </trkpt>
      <trkpt lat="42.831859" lon="0.122872">
        <ele>2602.0</ele>
        <time>2009-10-07T05:42:45Z</time>
      </trkpt>
      <trkpt lat="42.831932" lon="0.122952">
        <ele>2602.0</ele>
        <time>2009-10-07T05:43:07Z</time>
      </trkpt>
      <trkpt lat="42.832018" lon="0.122916">
        <ele>2626.0</ele>
        <time>2009-10-07T05:44:29Z</time>
      </trkpt>
      <trkpt lat="42.832110" lon="0.122899">
        <ele>2626.0</ele>
        <time>2009-10-07T05:44:48Z</time>
      </trkpt>
      <trkpt lat="42.832196" lon="0.122854">
        <ele>2626.0</ele>
        <time>2009-10-07T05:45:59Z</time>
      </trkpt>
      <trkpt lat="42.832256" lon="0.122755">
        <ele>2633.0</ele>
        <time>2009-10-07T05:46:28Z</time>
      </trkpt>
      <trkpt lat="42.832342" lon="0.122710">
        <ele>2633.0</ele>
        <time>2009-10-07T05:46:48Z</time>
      </trkpt>
      <trkpt lat="42.832394" lon="0.122611">
        <ele>2633.0</ele>
        <time>2009-10-07T05:47:09Z</time>
      </trkpt>
      <trkpt lat="42.832441" lon="0.122503">
        <ele>2633.0</ele>
        <time>2009-10-07T05:47:25Z</time>
      </trkpt>
      <trkpt lat="42.832494" lon="0.122395">
        <ele>2627.0</ele>
        <time>2009-10-07T05:47:40Z</time>
      </trkpt>
      <trkpt lat="42.832434" lon="0.122288">
        <ele>2640.0</ele>
        <time>2009-10-07T05:47:49Z</time>
      </trkpt>
      <trkpt lat="42.832427" lon="0.122162">
        <ele>2647.0</ele>
        <time>2009-10-07T05:48:12Z</time>
      </trkpt>
      <trkpt lat="42.832474" lon="0.122054">
        <ele>2652.0</ele>
        <time>2009-10-07T05:48:31Z</time>
      </trkpt>
      <trkpt lat="42.832546" lon="0.121964">
        <ele>2652.0</ele>
        <time>2009-10-07T05:48:51Z</time>
      </trkpt>
      <trkpt lat="42.832586" lon="0.121847">
        <ele>2646.0</ele>
        <time>2009-10-07T05:49:10Z</time>
      </trkpt>
      <trkpt lat="42.832606" lon="0.121722">
        <ele>2646.0</ele>
        <time>2009-10-07T05:49:26Z</time>
      </trkpt>
      <trkpt lat="42.832646" lon="0.121605">
        <ele>2646.0</ele>
        <time>2009-10-07T05:49:43Z</time>
      </trkpt>
      <trkpt lat="42.832718" lon="0.121524">
        <ele>2646.0</ele>
        <time>2009-10-07T05:50:34Z</time>
      </trkpt>
      <trkpt lat="42.832725" lon="0.121398">
        <ele>2653.0</ele>
        <time>2009-10-07T05:51:02Z</time>
      </trkpt>
      <trkpt lat="42.832745" lon="0.121273">
        <ele>2664.0</ele>
        <time>2009-10-07T05:51:38Z</time>
      </trkpt>
      <trkpt lat="42.832725" lon="0.121147">
        <ele>2680.0</ele>
        <time>2009-10-07T05:51:57Z</time>
      </trkpt>
      <trkpt lat="42.832804" lon="0.121084">
        <ele>2674.0</ele>
        <time>2009-10-07T05:52:36Z</time>
      </trkpt>
      <trkpt lat="42.832884" lon="0.121021">
        <ele>2674.0</ele>
        <time>2009-10-07T05:53:23Z</time>
      </trkpt>
      <trkpt lat="42.832930" lon="0.120913">
        <ele>2680.0</ele>
        <time>2009-10-07T05:54:11Z</time>
      </trkpt>
      <trkpt lat="42.832970" lon="0.120796">
        <ele>2680.0</ele>
        <time>2009-10-07T05:54:39Z</time>
      </trkpt>
      <trkpt lat="42.832970" lon="0.120662">
        <ele>2680.0</ele>
        <time>2009-10-07T05:55:05Z</time>
      </trkpt>
      <trkpt lat="42.832923" lon="0.120554">
        <ele>2689.0</ele>
        <time>2009-10-07T05:55:12Z</time>
      </trkpt>
      <trkpt lat="42.832937" lon="0.120428">
        <ele>2689.0</ele>
        <time>2009-10-07T05:55:30Z</time>
      </trkpt>
      <trkpt lat="42.833023" lon="0.120383">
        <ele>2682.0</ele>
        <time>2009-10-07T05:55:47Z</time>
      </trkpt>
      <trkpt lat="42.833062" lon="0.120266">
        <ele>2682.0</ele>
        <time>2009-10-07T05:56:15Z</time>
      </trkpt>
      <trkpt lat="42.833069" lon="0.120141">
        <ele>2696.0</ele>
        <time>2009-10-07T05:56:43Z</time>
      </trkpt>
      <trkpt lat="42.833115" lon="0.120033">
        <ele>2696.0</ele>
        <time>2009-10-07T05:57:16Z</time>
      </trkpt>
      <trkpt lat="42.833168" lon="0.119934">
        <ele>2696.0</ele>
        <time>2009-10-07T05:57:57Z</time>
      </trkpt>
      <trkpt lat="42.833194" lon="0.119817">
        <ele>2688.0</ele>
        <time>2009-10-07T05:58:25Z</time>
      </trkpt>
      <trkpt lat="42.833221" lon="0.119701">
        <ele>2688.0</ele>
        <time>2009-10-07T05:58:42Z</time>
      </trkpt>
      <trkpt lat="42.833221" lon="0.119575">
        <ele>2688.0</ele>
        <time>2009-10-07T05:59:08Z</time>
      </trkpt>
      <trkpt lat="42.833221" lon="0.119449">
        <ele>2688.0</ele>
        <time>2009-10-07T05:59:35Z</time>
      </trkpt>
      <trkpt lat="42.833175" lon="0.119341">
        <ele>2702.0</ele>
        <time>2009-10-07T05:59:48Z</time>
      </trkpt>
      <trkpt lat="42.833148" lon="0.119224">
        <ele>2702.0</ele>
        <time>2009-10-07T06:00:10Z</time>
      </trkpt>
      <trkpt lat="42.833142" lon="0.119099">
        <ele>2702.0</ele>
        <time>2009-10-07T06:00:36Z</time>
      </trkpt>
      <trkpt lat="42.833115" lon="0.118982">
        <ele>2702.0</ele>
        <time>2009-10-07T06:00:55Z</time>
      </trkpt>
      <trkpt lat="42.833082" lon="0.118865">
        <ele>2702.0</ele>
        <time>2009-10-07T06:01:10Z</time>
      </trkpt>
      <trkpt lat="42.833062" lon="0.118739">
        <ele>2691.0</ele>
        <time>2009-10-07T06:01:59Z</time>
      </trkpt>
      <trkpt lat="42.833056" lon="0.118614">
        <ele>2691.0</ele>
        <time>2009-10-07T06:02:37Z</time>
      </trkpt>
      <trkpt lat="42.833049" lon="0.118488">
        <ele>2691.0</ele>
        <time>2009-10-07T06:02:55Z</time>
      </trkpt>
      <trkpt lat="42.833056" lon="0.118362">
        <ele>2684.0</ele>
        <time>2009-10-07T06:03:22Z</time>
      </trkpt>
      <trkpt lat="42.833003" lon="0.118263">
        <ele>2694.0</ele>
        <time>2009-10-07T06:03:46Z</time>
      </trkpt>
      <trkpt lat="42.832950" lon="0.118155">
        <ele>2694.0</ele>
        <time>2009-10-07T06:04:07Z</time>
      </trkpt>
      <trkpt lat="42.832930" lon="0.118030">
        <ele>2694.0</ele>
        <time>2009-10-07T06:04:31Z</time>
      </trkpt>
      <trkpt lat="42.832917" lon="0.117868">
        <ele>2691.0</ele>
        <time>2009-10-07T06:05:47Z</time>
      </trkpt>
      <trkpt lat="42.832950" lon="0.117751">
        <ele>2691.0</ele>
        <time>2009-10-07T06:06:06Z</time>
      </trkpt>
      <trkpt lat="42.832917" lon="0.117634">
        <ele>2691.0</ele>
        <time>2009-10-07T06:06:34Z</time>
      </trkpt>
      <trkpt lat="42.832930" lon="0.117509">
        <ele>2691.0</ele>
        <time>2009-10-07T06:06:59Z</time>
      </trkpt>
      <trkpt lat="42.832897" lon="0.117392">
        <ele>2691.0</ele>
        <time>2009-10-07T06:07:11Z</time>
      </trkpt>
      <trkpt lat="42.832970" lon="0.117311">
        <ele>2691.0</ele>
        <time>2009-10-07T06:07:33Z</time>
      </trkpt>
      <trkpt lat="42.832930" lon="0.117194">
        <ele>2710.0</ele>
        <time>2009-10-07T06:08:06Z</time>
      </trkpt>
      <trkpt lat="42.832943" lon="0.117068">
        <ele>2721.0</ele>
        <time>2009-10-07T06:08:43Z</time>
      </trkpt>
      <trkpt lat="42.833029" lon="0.117006">
        <ele>2707.0</ele>
        <time>2009-10-07T06:08:56Z</time>
      </trkpt>
      <trkpt lat="42.833036" lon="0.116835">
        <ele>2714.0</ele>
        <time>2009-10-07T06:09:32Z</time>
      </trkpt>
      <trkpt lat="42.833095" lon="0.116736">
        <ele>2714.0</ele>
        <time>2009-10-07T06:10:02Z</time>
      </trkpt>
      <trkpt lat="42.833148" lon="0.116637">
        <ele>2733.0</ele>
        <time>2009-10-07T06:10:55Z</time>
      </trkpt>
      <trkpt lat="42.833175" lon="0.116520">
        <ele>2738.0</ele>
        <time>2009-10-07T06:11:29Z</time>
      </trkpt>
      <trkpt lat="42.833274" lon="0.116520">
        <ele>2738.0</ele>
        <time>2009-10-07T06:11:49Z</time>
      </trkpt>
      <trkpt lat="42.833343" lon="0.116369">
        <ele>2732.0</ele>
        <time>2009-10-07T06:12:09Z</time>
      </trkpt>
      <trkpt lat="42.833378" lon="0.116061">
        <ele>2753.0</ele>
        <time>2009-10-07T06:14:09Z</time>
      </trkpt>
      <trkpt lat="42.833338" lon="0.115766">
        <ele>2753.0</ele>
        <time>2009-10-07T06:14:20Z</time>
      </trkpt>
      <trkpt lat="42.833285" lon="0.115527">
        <ele>2753.0</ele>
        <time>2009-10-07T06:15:30Z</time>
      </trkpt>
      <trkpt lat="42.833225" lon="0.115276">
        <ele>2753.0</ele>
        <time>2009-10-07T06:17:09Z</time>
      </trkpt>
      <trkpt lat="42.833154" lon="0.114954">
        <ele>2753.0</ele>
        <time>2009-10-07T06:20:41Z</time>
      </trkpt>
      <trkpt lat="42.833059" lon="0.114656">
        <ele>2753.0</ele>
        <time>2009-10-07T06:22:22Z</time>
      </trkpt>
      <trkpt lat="42.833009" lon="0.114454">
        <ele>2753.0</ele>
        <time>2009-10-07T06:23:20Z</time>
      </trkpt>
      <trkpt lat="42.832959" lon="0.114255">
        <ele>2753.0</ele>
        <time>2009-10-07T06:24:13Z</time>
      </trkpt>
      <trkpt lat="42.832944" lon="0.114174">
        <ele>2919.0</ele>
        <time>2009-10-07T06:47:04Z</time>
      </trkpt>
      <trkpt lat="42.832962" lon="0.114113">
        <ele>2915.0</ele>
        <time>2009-10-07T06:48:39Z</time>
      </trkpt>
      <trkpt lat="42.833060" lon="0.114159">
        <ele>2930.0</ele>
        <time>2009-10-07T07:11:47Z</time>
      </trkpt>
      <trkpt lat="42.833153" lon="0.114222">
        <ele>2954.0</ele>
        <time>2009-10-07T07:13:21Z</time>
      </trkpt>
      <trkpt lat="42.833241" lon="0.114239">
        <ele>2954.0</ele>
        <time>2009-10-07T07:14:53Z</time>
      </trkpt>
      <trkpt lat="42.833413" lon="0.114436">
        <ele>2974.0</ele>
        <time>2009-10-07T07:32:43Z</time>
      </trkpt>
      <trkpt lat="42.833499" lon="0.114490">
        <ele>2995.0</ele>
        <time>2009-10-07T07:38:46Z</time>
      </trkpt>
      <trkpt lat="42.833585" lon="0.114544">
        <ele>2995.0</ele>
        <time>2009-10-07T08:00:24Z</time>
      </trkpt>
      <trkpt lat="42.834027" lon="0.114841">
        <ele>3017.0</ele>
        <time>2009-10-07T09:02:58Z</time>
      </trkpt>
      <trkpt lat="42.834120" lon="0.114805">
        <ele>3030.0</ele>
        <time>2009-10-07T09:10:29Z</time>
      </trkpt>
      <trkpt lat="42.834213" lon="0.114787">
        <ele>3048.0</ele>
        <time>2009-10-07T09:14:58Z</time>
      </trkpt>
      <trkpt lat="42.834265" lon="0.114886">
        <ele>3058.0</ele>
        <time>2009-10-07T09:27:40Z</time>
      </trkpt>
      <trkpt lat="42.834345" lon="0.114948">
        <ele>3066.0</ele>
        <time>2009-10-07T09:29:58Z</time>
      </trkpt>
      <trkpt lat="42.834437" lon="0.115047">
        <ele>3066.0</ele>
        <time>2009-10-07T09:54:57Z</time>
      </trkpt>
      <trkpt lat="42.834504" lon="0.115137">
        <ele>3066.0</ele>
        <time>2009-10-07T09:56:12Z</time>
      </trkpt>
      <trkpt lat="42.834556" lon="0.115245">
        <ele>3071.0</ele>
        <time>2009-10-07T09:57:06Z</time>
      </trkpt>
      <trkpt lat="42.834642" lon="0.115317">
        <ele>3065.0</ele>
        <time>2009-10-07T10:01:02Z</time>
      </trkpt>
      <trkpt lat="42.834675" lon="0.115434">
        <ele>3077.0</ele>
        <time>2009-10-07T10:03:41Z</time>
      </trkpt>
      <trkpt lat="42.834768" lon="0.115416">
        <ele>3088.0</ele>
        <time>2009-10-07T10:16:58Z</time>
      </trkpt>
      <trkpt lat="42.834861" lon="0.115389">
        <ele>3088.0</ele>
        <time>2009-10-07T10:17:31Z</time>
      </trkpt>
      <trkpt lat="42.834953" lon="0.115389">
        <ele>3088.0</ele>
        <time>2009-10-07T10:19:59Z</time>
      </trkpt>
      <trkpt lat="42.835039" lon="0.115353">
        <ele>3088.0</ele>
        <time>2009-10-07T10:20:35Z</time>
      </trkpt>
      <trkpt lat="42.835132" lon="0.115326">
        <ele>3088.0</ele>
        <time>2009-10-07T10:21:09Z</time>
      </trkpt>
      <trkpt lat="42.835224" lon="0.115299">
        <ele>3088.0</ele>
        <time>2009-10-07T10:22:22Z</time>
      </trkpt>
      <trkpt lat="42.835303" lon="0.115218">
        <ele>3088.0</ele>
        <time>2009-10-07T10:24:24Z</time>
      </trkpt>
      <trkpt lat="42.835370" lon="0.115128">
        <ele>3099.0</ele>
        <time>2009-10-07T10:24:50Z</time>
      </trkpt>
      <trkpt lat="42.835376" lon="0.115002">
        <ele>3099.0</ele>
        <time>2009-10-07T10:28:49Z</time>
      </trkpt>
      <trkpt lat="42.835363" lon="0.114877">
        <ele>3091.0</ele>
        <time>2009-10-07T10:31:28Z</time>
      </trkpt>
      <trkpt lat="42.835429" lon="0.114787">
        <ele>3091.0</ele>
        <time>2009-10-07T10:33:06Z</time>
      </trkpt>
      <trkpt lat="42.835522" lon="0.114787">
        <ele>3071.0</ele>
        <time>2009-10-07T10:34:50Z</time>
      </trkpt>
      <trkpt lat="42.835594" lon="0.114859">
        <ele>3062.0</ele>
        <time>2009-10-07T10:36:05Z</time>
      </trkpt>
      <trkpt lat="42.835687" lon="0.114832">
        <ele>3052.0</ele>
        <time>2009-10-07T10:38:02Z</time>
      </trkpt>
      <trkpt lat="42.835700" lon="0.114706">
        <ele>3052.0</ele>
        <time>2009-10-07T10:38:39Z</time>
      </trkpt>
      <trkpt lat="42.835766" lon="0.114607">
        <ele>3043.0</ele>
        <time>2009-10-07T10:39:18Z</time>
      </trkpt>
      <trkpt lat="42.835852" lon="0.114661">
        <ele>3043.0</ele>
        <time>2009-10-07T10:40:55Z</time>
      </trkpt>
      <trkpt lat="42.835932" lon="0.114724">
        <ele>3034.0</ele>
        <time>2009-10-07T10:41:31Z</time>
      </trkpt>
      <trkpt lat="42.835965" lon="0.114841">
        <ele>3034.0</ele>
        <time>2009-10-07T10:42:11Z</time>
      </trkpt>
      <trkpt lat="42.835998" lon="0.114957">
        <ele>3025.0</ele>
        <time>2009-10-07T10:42:42Z</time>
      </trkpt>
      <trkpt lat="42.836051" lon="0.115065">
        <ele>3025.0</ele>
        <time>2009-10-07T10:42:55Z</time>
      </trkpt>
      <trkpt lat="42.836123" lon="0.115137">
        <ele>3025.0</ele>
        <time>2009-10-07T10:43:24Z</time>
      </trkpt>
      <trkpt lat="42.836196" lon="0.115209">
        <ele>3015.0</ele>
        <time>2009-10-07T10:43:52Z</time>
      </trkpt>
      <trkpt lat="42.836255" lon="0.115191">
        <ele>3011.0</ele>
        <time>2009-10-07T11:03:35Z</time>
      </trkpt>
      <trkpt lat="42.836335" lon="0.115128">
        <ele>3011.0</ele>
        <time>2009-10-07T11:03:58Z</time>
      </trkpt>
      <trkpt lat="42.836414" lon="0.115065">
        <ele>2999.0</ele>
        <time>2009-10-07T11:04:31Z</time>
      </trkpt>
      <trkpt lat="42.836500" lon="0.115020">
        <ele>2999.0</ele>
        <time>2009-10-07T11:04:57Z</time>
      </trkpt>
      <trkpt lat="42.836586" lon="0.115065">
        <ele>2999.0</ele>
        <time>2009-10-07T11:05:25Z</time>
      </trkpt>
      <trkpt lat="42.836679" lon="0.115038">
        <ele>2979.0</ele>
        <time>2009-10-07T11:06:51Z</time>
      </trkpt>
      <trkpt lat="42.836771" lon="0.115002">
        <ele>2971.0</ele>
        <time>2009-10-07T11:07:33Z</time>
      </trkpt>
      <trkpt lat="42.836857" lon="0.114957">
        <ele>2971.0</ele>
        <time>2009-10-07T11:07:57Z</time>
      </trkpt>
      <trkpt lat="42.836943" lon="0.114912">
        <ele>2961.0</ele>
        <time>2009-10-07T11:08:32Z</time>
      </trkpt>
      <trkpt lat="42.837036" lon="0.114939">
        <ele>2952.0</ele>
        <time>2009-10-07T11:08:59Z</time>
      </trkpt>
      <trkpt lat="42.837089" lon="0.114832">
        <ele>2952.0</ele>
        <time>2009-10-07T11:09:47Z</time>
      </trkpt>
      <trkpt lat="42.837115" lon="0.114715">
        <ele>2943.0</ele>
        <time>2009-10-07T11:09:58Z</time>
      </trkpt>
      <trkpt lat="42.837174" lon="0.114616">
        <ele>2943.0</ele>
        <time>2009-10-07T11:10:13Z</time>
      </trkpt>
      <trkpt lat="42.837267" lon="0.114643">
        <ele>2943.0</ele>
        <time>2009-10-07T11:10:29Z</time>
      </trkpt>
      <trkpt lat="42.837353" lon="0.114697">
        <ele>2936.0</ele>
        <time>2009-10-07T11:10:51Z</time>
      </trkpt>
      <trkpt lat="42.837432" lon="0.114634">
        <ele>2929.0</ele>
        <time>2009-10-07T11:11:27Z</time>
      </trkpt>
      <trkpt lat="42.837525" lon="0.114625">
        <ele>2929.0</ele>
        <time>2009-10-07T11:12:04Z</time>
      </trkpt>
      <trkpt lat="42.837644" lon="0.114607">
        <ele>2911.0</ele>
        <time>2009-10-07T11:12:54Z</time>
      </trkpt>
      <trkpt lat="42.837736" lon="0.114598">
        <ele>2905.0</ele>
        <time>2009-10-07T11:13:15Z</time>
      </trkpt>
      <trkpt lat="42.837849" lon="0.114742">
        <ele>2906.0</ele>
        <time>2009-10-07T11:16:24Z</time>
      </trkpt>
      <trkpt lat="42.837941" lon="0.114805">
        <ele>2897.0</ele>
        <time>2009-10-07T11:16:46Z</time>
      </trkpt>
      <trkpt lat="42.838034" lon="0.114787">
        <ele>2879.0</ele>
        <time>2009-10-07T11:17:55Z</time>
      </trkpt>
      <trkpt lat="42.838120" lon="0.114742">
        <ele>2873.0</ele>
        <time>2009-10-07T11:18:25Z</time>
      </trkpt>
      <trkpt lat="42.838193" lon="0.114832">
        <ele>2873.0</ele>
        <time>2009-10-07T11:18:40Z</time>
      </trkpt>
      <trkpt lat="42.838239" lon="0.114939">
        <ele>2862.0</ele>
        <time>2009-10-07T11:19:13Z</time>
      </trkpt>
      <trkpt lat="42.838305" lon="0.115029">
        <ele>2862.0</ele>
        <time>2009-10-07T11:19:27Z</time>
      </trkpt>
      <trkpt lat="42.838397" lon="0.115038">
        <ele>2843.0</ele>
        <time>2009-10-07T11:19:59Z</time>
      </trkpt>
      <trkpt lat="42.838483" lon="0.115101">
        <ele>2850.0</ele>
        <time>2009-10-07T11:20:07Z</time>
      </trkpt>
      <trkpt lat="42.838536" lon="0.115200">
        <ele>2850.0</ele>
        <time>2009-10-07T11:20:16Z</time>
      </trkpt>
      <trkpt lat="42.838609" lon="0.115290">
        <ele>2850.0</ele>
        <time>2009-10-07T11:20:42Z</time>
      </trkpt>
      <trkpt lat="42.838682" lon="0.115380">
        <ele>2836.0</ele>
        <time>2009-10-07T11:21:25Z</time>
      </trkpt>
      <trkpt lat="42.838754" lon="0.115478">
        <ele>2836.0</ele>
        <time>2009-10-07T11:21:40Z</time>
      </trkpt>
      <trkpt lat="42.838807" lon="0.115586">
        <ele>2824.0</ele>
        <time>2009-10-07T11:22:25Z</time>
      </trkpt>
      <trkpt lat="42.838913" lon="0.115667">
        <ele>2837.0</ele>
        <time>2009-10-07T11:23:05Z</time>
      </trkpt>
      <trkpt lat="42.838979" lon="0.115793">
        <ele>2823.0</ele>
        <time>2009-10-07T11:23:52Z</time>
      </trkpt>
      <trkpt lat="42.839059" lon="0.115874">
        <ele>2823.0</ele>
        <time>2009-10-07T11:24:03Z</time>
      </trkpt>
      <trkpt lat="42.839151" lon="0.115946">
        <ele>2815.0</ele>
        <time>2009-10-07T11:24:38Z</time>
      </trkpt>
      <trkpt lat="42.839217" lon="0.116044">
        <ele>2815.0</ele>
        <time>2009-10-07T11:24:51Z</time>
      </trkpt>
      <trkpt lat="42.839270" lon="0.116143">
        <ele>2807.0</ele>
        <time>2009-10-07T11:25:22Z</time>
      </trkpt>
      <trkpt lat="42.839336" lon="0.116251">
        <ele>2807.0</ele>
        <time>2009-10-07T11:25:44Z</time>
      </trkpt>
      <trkpt lat="42.839416" lon="0.116350">
        <ele>2802.0</ele>
        <time>2009-10-07T11:26:14Z</time>
      </trkpt>
      <trkpt lat="42.839488" lon="0.116440">
        <ele>2790.0</ele>
        <time>2009-10-07T11:27:07Z</time>
      </trkpt>
      <trkpt lat="42.839587" lon="0.116422">
        <ele>2790.0</ele>
        <time>2009-10-07T11:27:21Z</time>
      </trkpt>
      <trkpt lat="42.839673" lon="0.116458">
        <ele>2790.0</ele>
        <time>2009-10-07T11:27:31Z</time>
      </trkpt>
      <trkpt lat="42.839753" lon="0.116547">
        <ele>2784.0</ele>
        <time>2009-10-07T11:28:07Z</time>
      </trkpt>
      <trkpt lat="42.839845" lon="0.116574">
        <ele>2784.0</ele>
        <time>2009-10-07T11:28:21Z</time>
      </trkpt>
      <trkpt lat="42.839885" lon="0.116691">
        <ele>2784.0</ele>
        <time>2009-10-07T11:28:39Z</time>
      </trkpt>
      <trkpt lat="42.839931" lon="0.116799">
        <ele>2763.0</ele>
        <time>2009-10-07T11:29:10Z</time>
      </trkpt>
      <trkpt lat="42.839964" lon="0.116916">
        <ele>2763.0</ele>
        <time>2009-10-07T11:29:26Z</time>
      </trkpt>
      <trkpt lat="42.840044" lon="0.117006">
        <ele>2763.0</ele>
        <time>2009-10-07T11:29:51Z</time>
      </trkpt>
      <trkpt lat="42.840090" lon="0.117113">
        <ele>2763.0</ele>
        <time>2009-10-07T11:30:09Z</time>
      </trkpt>
      <trkpt lat="42.840189" lon="0.117131">
        <ele>2763.0</ele>
        <time>2009-10-07T11:30:28Z</time>
      </trkpt>
      <trkpt lat="42.840215" lon="0.117257">
        <ele>2763.0</ele>
        <time>2009-10-07T11:30:44Z</time>
      </trkpt>
      <trkpt lat="42.840189" lon="0.117374">
        <ele>2748.0</ele>
        <time>2009-10-07T11:31:07Z</time>
      </trkpt>
      <trkpt lat="42.840242" lon="0.117482">
        <ele>2748.0</ele>
        <time>2009-10-07T11:31:19Z</time>
      </trkpt>
      <trkpt lat="42.840315" lon="0.117554">
        <ele>2748.0</ele>
        <time>2009-10-07T11:31:37Z</time>
      </trkpt>
      <trkpt lat="42.840381" lon="0.117661">
        <ele>2748.0</ele>
        <time>2009-10-07T11:32:43Z</time>
      </trkpt>
      <trkpt lat="42.840434" lon="0.117760">
        <ele>2748.0</ele>
        <time>2009-10-07T11:33:01Z</time>
      </trkpt>
      <trkpt lat="42.840387" lon="0.117868">
        <ele>2743.0</ele>
        <time>2009-10-07T11:33:17Z</time>
      </trkpt>
      <trkpt lat="42.840401" lon="0.117994">
        <ele>2732.0</ele>
        <time>2009-10-07T11:33:53Z</time>
      </trkpt>
      <trkpt lat="42.840500" lon="0.118048">
        <ele>2732.0</ele>
        <time>2009-10-07T11:34:04Z</time>
      </trkpt>
      <trkpt lat="42.840526" lon="0.118164">
        <ele>2732.0</ele>
        <time>2009-10-07T11:34:20Z</time>
      </trkpt>
      <trkpt lat="42.840533" lon="0.118344">
        <ele>2724.0</ele>
        <time>2009-10-07T11:34:55Z</time>
      </trkpt>
      <trkpt lat="42.840520" lon="0.118479">
        <ele>2724.0</ele>
        <time>2009-10-07T11:35:09Z</time>
      </trkpt>
      <trkpt lat="42.840553" lon="0.118596">
        <ele>2718.0</ele>
        <time>2009-10-07T11:35:22Z</time>
      </trkpt>
      <trkpt lat="42.840506" lon="0.118703">
        <ele>2718.0</ele>
        <time>2009-10-07T11:35:38Z</time>
      </trkpt>
      <trkpt lat="42.840414" lon="0.118730">
        <ele>2707.0</ele>
        <time>2009-10-07T11:36:04Z</time>
      </trkpt>
      <trkpt lat="42.840334" lon="0.118793">
        <ele>2707.0</ele>
        <time>2009-10-07T11:36:13Z</time>
      </trkpt>
      <trkpt lat="42.840328" lon="0.118919">
        <ele>2707.0</ele>
        <time>2009-10-07T11:36:41Z</time>
      </trkpt>
      <trkpt lat="42.840381" lon="0.119027">
        <ele>2707.0</ele>
        <time>2009-10-07T11:36:56Z</time>
      </trkpt>
      <trkpt lat="42.840401" lon="0.119171">
        <ele>2707.0</ele>
        <time>2009-10-07T11:37:39Z</time>
      </trkpt>
      <trkpt lat="42.840374" lon="0.119296">
        <ele>2700.0</ele>
        <time>2009-10-07T11:37:56Z</time>
      </trkpt>
      <trkpt lat="42.840427" lon="0.119395">
        <ele>2700.0</ele>
        <time>2009-10-07T11:38:08Z</time>
      </trkpt>
      <trkpt lat="42.840427" lon="0.119521">
        <ele>2700.0</ele>
        <time>2009-10-07T11:38:24Z</time>
      </trkpt>
      <trkpt lat="42.840447" lon="0.119647">
        <ele>2694.0</ele>
        <time>2009-10-07T11:38:37Z</time>
      </trkpt>
      <trkpt lat="42.840500" lon="0.119763">
        <ele>2688.0</ele>
        <time>2009-10-07T11:38:51Z</time>
      </trkpt>
      <trkpt lat="42.840566" lon="0.119853">
        <ele>2688.0</ele>
        <time>2009-10-07T11:38:59Z</time>
      </trkpt>
      <trkpt lat="42.840619" lon="0.120033">
        <ele>2686.0</ele>
        <time>2009-10-07T11:39:47Z</time>
      </trkpt>
      <trkpt lat="42.840672" lon="0.120132">
        <ele>2686.0</ele>
        <time>2009-10-07T11:39:59Z</time>
      </trkpt>
      <trkpt lat="42.840758" lon="0.120204">
        <ele>2686.0</ele>
        <time>2009-10-07T11:40:11Z</time>
      </trkpt>
      <trkpt lat="42.840830" lon="0.120275">
        <ele>2681.0</ele>
        <time>2009-10-07T11:40:24Z</time>
      </trkpt>
      <trkpt lat="42.840910" lon="0.120338">
        <ele>2681.0</ele>
        <time>2009-10-07T11:40:35Z</time>
      </trkpt>
      <trkpt lat="42.840890" lon="0.120473">
        <ele>2674.0</ele>
        <time>2009-10-07T11:40:47Z</time>
      </trkpt>
      <trkpt lat="42.840877" lon="0.120599">
        <ele>2674.0</ele>
        <time>2009-10-07T11:40:56Z</time>
      </trkpt>
      <trkpt lat="42.840903" lon="0.120716">
        <ele>2665.0</ele>
        <time>2009-10-07T11:41:18Z</time>
      </trkpt>
      <trkpt lat="42.840910" lon="0.120841">
        <ele>2675.0</ele>
        <time>2009-10-07T11:42:40Z</time>
      </trkpt>
      <trkpt lat="42.840969" lon="0.120949">
        <ele>2675.0</ele>
        <time>2009-10-07T11:42:59Z</time>
      </trkpt>
      <trkpt lat="42.840982" lon="0.121075">
        <ele>2675.0</ele>
        <time>2009-10-07T11:43:09Z</time>
      </trkpt>
      <trkpt lat="42.840976" lon="0.121210">
        <ele>2662.0</ele>
        <time>2009-10-07T11:43:33Z</time>
      </trkpt>
      <trkpt lat="42.840996" lon="0.121335">
        <ele>2655.0</ele>
        <time>2009-10-07T11:45:22Z</time>
      </trkpt>
      <trkpt lat="42.841048" lon="0.121434">
        <ele>2664.0</ele>
        <time>2009-10-07T11:45:43Z</time>
      </trkpt>
      <trkpt lat="42.841042" lon="0.121569">
        <ele>2655.0</ele>
        <time>2009-10-07T11:46:15Z</time>
      </trkpt>
      <trkpt lat="42.841048" lon="0.121695">
        <ele>2649.0</ele>
        <time>2009-10-07T11:46:32Z</time>
      </trkpt>
      <trkpt lat="42.841015" lon="0.121812">
        <ele>2649.0</ele>
        <time>2009-10-07T11:46:42Z</time>
      </trkpt>
      <trkpt lat="42.841015" lon="0.121937">
        <ele>2649.0</ele>
        <time>2009-10-07T11:46:52Z</time>
      </trkpt>
      <trkpt lat="42.841002" lon="0.122063">
        <ele>2649.0</ele>
        <time>2009-10-07T11:47:02Z</time>
      </trkpt>
      <trkpt lat="42.841022" lon="0.122198">
        <ele>2641.0</ele>
        <time>2009-10-07T11:47:16Z</time>
      </trkpt>
      <trkpt lat="42.841015" lon="0.122324">
        <ele>2634.0</ele>
        <time>2009-10-07T11:47:33Z</time>
      </trkpt>
      <trkpt lat="42.841015" lon="0.122449">
        <ele>2626.0</ele>
        <time>2009-10-07T11:47:53Z</time>
      </trkpt>
      <trkpt lat="42.841035" lon="0.122575">
        <ele>2626.0</ele>
        <time>2009-10-07T11:48:09Z</time>
      </trkpt>
      <trkpt lat="42.841002" lon="0.122692">
        <ele>2620.0</ele>
        <time>2009-10-07T11:48:25Z</time>
      </trkpt>
      <trkpt lat="42.840956" lon="0.122800">
        <ele>2620.0</ele>
        <time>2009-10-07T11:48:41Z</time>
      </trkpt>
      <trkpt lat="42.840949" lon="0.122925">
        <ele>2620.0</ele>
        <time>2009-10-07T11:49:06Z</time>
      </trkpt>
      <trkpt lat="42.840956" lon="0.123051">
        <ele>2620.0</ele>
        <time>2009-10-07T11:49:42Z</time>
      </trkpt>
      <trkpt lat="42.840903" lon="0.123150">
        <ele>2607.0</ele>
        <time>2009-10-07T11:50:49Z</time>
      </trkpt>
      <trkpt lat="42.840910" lon="0.123276">
        <ele>2607.0</ele>
        <time>2009-10-07T11:51:01Z</time>
      </trkpt>
      <trkpt lat="42.840923" lon="0.123411">
        <ele>2607.0</ele>
        <time>2009-10-07T11:51:16Z</time>
      </trkpt>
      <trkpt lat="42.840916" lon="0.123536">
        <ele>2607.0</ele>
        <time>2009-10-07T11:51:27Z</time>
      </trkpt>
      <trkpt lat="42.840837" lon="0.123635">
        <ele>2601.0</ele>
        <time>2009-10-07T11:51:41Z</time>
      </trkpt>
      <trkpt lat="42.840777" lon="0.123734">
        <ele>2601.0</ele>
        <time>2009-10-07T11:51:54Z</time>
      </trkpt>
      <trkpt lat="42.840784" lon="0.123860">
        <ele>2601.0</ele>
        <time>2009-10-07T11:52:06Z</time>
      </trkpt>
      <trkpt lat="42.840784" lon="0.123985">
        <ele>2601.0</ele>
        <time>2009-10-07T11:52:18Z</time>
      </trkpt>
      <trkpt lat="42.840738" lon="0.124093">
        <ele>2592.0</ele>
        <time>2009-10-07T11:52:33Z</time>
      </trkpt>
      <trkpt lat="42.840711" lon="0.124210">
        <ele>2592.0</ele>
        <time>2009-10-07T11:52:47Z</time>
      </trkpt>
      <trkpt lat="42.840685" lon="0.124327">
        <ele>2592.0</ele>
        <time>2009-10-07T11:53:06Z</time>
      </trkpt>
      <trkpt lat="42.840632" lon="0.124435">
        <ele>2582.0</ele>
        <time>2009-10-07T11:53:25Z</time>
      </trkpt>
      <trkpt lat="42.840599" lon="0.124551">
        <ele>2582.0</ele>
        <time>2009-10-07T11:53:37Z</time>
      </trkpt>
      <trkpt lat="42.840553" lon="0.124668">
        <ele>2576.0</ele>
        <time>2009-10-07T11:53:56Z</time>
      </trkpt>
      <trkpt lat="42.840526" lon="0.124785">
        <ele>2576.0</ele>
        <time>2009-10-07T11:54:12Z</time>
      </trkpt>
      <trkpt lat="42.840546" lon="0.124911">
        <ele>2568.0</ele>
        <time>2009-10-07T11:54:37Z</time>
      </trkpt>
      <trkpt lat="42.840493" lon="0.125010">
        <ele>2561.0</ele>
        <time>2009-10-07T11:54:58Z</time>
      </trkpt>
      <trkpt lat="42.840500" lon="0.125135">
        <ele>2554.0</ele>
        <time>2009-10-07T11:55:22Z</time>
      </trkpt>
      <trkpt lat="42.840453" lon="0.125252">
        <ele>2548.0</ele>
        <time>2009-10-07T11:55:39Z</time>
      </trkpt>
      <trkpt lat="42.840453" lon="0.125378">
        <ele>2548.0</ele>
        <time>2009-10-07T11:55:53Z</time>
      </trkpt>
      <trkpt lat="42.840487" lon="0.125495">
        <ele>2548.0</ele>
        <time>2009-10-07T11:56:06Z</time>
      </trkpt>
      <trkpt lat="42.840520" lon="0.125620">
        <ele>2539.0</ele>
        <time>2009-10-07T11:56:20Z</time>
      </trkpt>
      <trkpt lat="42.840533" lon="0.125746">
        <ele>2539.0</ele>
        <time>2009-10-07T11:56:32Z</time>
      </trkpt>
      <trkpt lat="42.840513" lon="0.125872">
        <ele>2539.0</ele>
        <time>2009-10-07T11:56:41Z</time>
      </trkpt>
      <trkpt lat="42.840487" lon="0.125998">
        <ele>2539.0</ele>
        <time>2009-10-07T11:57:03Z</time>
      </trkpt>
      <trkpt lat="42.840487" lon="0.126132">
        <ele>2539.0</ele>
        <time>2009-10-07T11:57:15Z</time>
      </trkpt>
      <trkpt lat="42.840440" lon="0.126240">
        <ele>2539.0</ele>
        <time>2009-10-07T11:57:30Z</time>
      </trkpt>
      <trkpt lat="42.840387" lon="0.126339">
        <ele>2539.0</ele>
        <time>2009-10-07T11:57:42Z</time>
      </trkpt>
      <trkpt lat="42.840374" lon="0.126465">
        <ele>2533.0</ele>
        <time>2009-10-07T11:57:57Z</time>
      </trkpt>
      <trkpt lat="42.840315" lon="0.126564">
        <ele>2533.0</ele>
        <time>2009-10-07T11:58:11Z</time>
      </trkpt>
      <trkpt lat="42.840242" lon="0.126636">
        <ele>2527.0</ele>
        <time>2009-10-07T11:58:42Z</time>
      </trkpt>
      <trkpt lat="42.840202" lon="0.126752">
        <ele>2520.0</ele>
        <time>2009-10-07T11:59:19Z</time>
      </trkpt>
      <trkpt lat="42.840189" lon="0.126878">
        <ele>2520.0</ele>
        <time>2009-10-07T11:59:39Z</time>
      </trkpt>
      <trkpt lat="42.840176" lon="0.127004">
        <ele>2520.0</ele>
        <time>2009-10-07T11:59:51Z</time>
      </trkpt>
      <trkpt lat="42.840149" lon="0.127121">
        <ele>2520.0</ele>
        <time>2009-10-07T12:00:02Z</time>
      </trkpt>
      <trkpt lat="42.840116" lon="0.127237">
        <ele>2520.0</ele>
        <time>2009-10-07T12:00:12Z</time>
      </trkpt>
      <trkpt lat="42.840090" lon="0.127354">
        <ele>2520.0</ele>
        <time>2009-10-07T12:00:25Z</time>
      </trkpt>
      <trkpt lat="42.840063" lon="0.127471">
        <ele>2520.0</ele>
        <time>2009-10-07T12:00:36Z</time>
      </trkpt>
      <trkpt lat="42.840037" lon="0.127588">
        <ele>2515.0</ele>
        <time>2009-10-07T12:00:52Z</time>
      </trkpt>
      <trkpt lat="42.840017" lon="0.127713">
        <ele>2515.0</ele>
        <time>2009-10-07T12:01:07Z</time>
      </trkpt>
      <trkpt lat="42.839958" lon="0.127821">
        <ele>2515.0</ele>
        <time>2009-10-07T12:01:26Z</time>
      </trkpt>
      <trkpt lat="42.839885" lon="0.127920">
        <ele>2515.0</ele>
        <time>2009-10-07T12:01:40Z</time>
      </trkpt>
      <trkpt lat="42.839892" lon="0.128046">
        <ele>2515.0</ele>
        <time>2009-10-07T12:01:49Z</time>
      </trkpt>
      <trkpt lat="42.839819" lon="0.128136">
        <ele>2515.0</ele>
        <time>2009-10-07T12:02:03Z</time>
      </trkpt>
      <trkpt lat="42.839819" lon="0.128261">
        <ele>2515.0</ele>
        <time>2009-10-07T12:02:12Z</time>
      </trkpt>
      <trkpt lat="42.839792" lon="0.128387">
        <ele>2515.0</ele>
        <time>2009-10-07T12:02:24Z</time>
      </trkpt>
      <trkpt lat="42.839753" lon="0.128504">
        <ele>2515.0</ele>
        <time>2009-10-07T12:02:37Z</time>
      </trkpt>
      <trkpt lat="42.839706" lon="0.128612">
        <ele>2515.0</ele>
        <time>2009-10-07T12:02:47Z</time>
      </trkpt>
      <trkpt lat="42.839634" lon="0.128693">
        <ele>2515.0</ele>
        <time>2009-10-07T12:03:23Z</time>
      </trkpt>
      <trkpt lat="42.839554" lon="0.128756">
        <ele>2515.0</ele>
        <time>2009-10-07T12:03:32Z</time>
      </trkpt>
      <trkpt lat="42.839488" lon="0.128854">
        <ele>2515.0</ele>
        <time>2009-10-07T12:03:42Z</time>
      </trkpt>
      <trkpt lat="42.839462" lon="0.128971">
        <ele>2515.0</ele>
        <time>2009-10-07T12:03:57Z</time>
      </trkpt>
      <trkpt lat="42.839515" lon="0.129079">
        <ele>2507.0</ele>
        <time>2009-10-07T12:04:18Z</time>
      </trkpt>
      <trkpt lat="42.839541" lon="0.129214">
        <ele>2507.0</ele>
        <time>2009-10-07T12:04:34Z</time>
      </trkpt>
      <trkpt lat="42.839554" lon="0.129339">
        <ele>2501.0</ele>
        <time>2009-10-07T12:04:54Z</time>
      </trkpt>
      <trkpt lat="42.839521" lon="0.129456">
        <ele>2496.0</ele>
        <time>2009-10-07T12:05:13Z</time>
      </trkpt>
      <trkpt lat="42.839495" lon="0.129573">
        <ele>2496.0</ele>
        <time>2009-10-07T12:05:52Z</time>
      </trkpt>
      <trkpt lat="42.839528" lon="0.129690">
        <ele>2496.0</ele>
        <time>2009-10-07T12:06:08Z</time>
      </trkpt>
      <trkpt lat="42.839568" lon="0.129807">
        <ele>2488.0</ele>
        <time>2009-10-07T12:06:36Z</time>
      </trkpt>
      <trkpt lat="42.839568" lon="0.129932">
        <ele>2488.0</ele>
        <time>2009-10-07T12:07:01Z</time>
      </trkpt>
      <trkpt lat="42.839561" lon="0.130058">
        <ele>2480.0</ele>
        <time>2009-10-07T12:07:25Z</time>
      </trkpt>
      <trkpt lat="42.839607" lon="0.130166">
        <ele>2480.0</ele>
        <time>2009-10-07T12:07:48Z</time>
      </trkpt>
      <trkpt lat="42.839561" lon="0.130274">
        <ele>2471.0</ele>
        <time>2009-10-07T12:08:10Z</time>
      </trkpt>
      <trkpt lat="42.839601" lon="0.130399">
        <ele>2471.0</ele>
        <time>2009-10-07T12:08:30Z</time>
      </trkpt>
      <trkpt lat="42.839548" lon="0.130507">
        <ele>2471.0</ele>
        <time>2009-10-07T12:08:45Z</time>
      </trkpt>
      <trkpt lat="42.839521" lon="0.130624">
        <ele>2471.0</ele>
        <time>2009-10-07T12:08:56Z</time>
      </trkpt>
      <trkpt lat="42.839535" lon="0.130750">
        <ele>2456.0</ele>
        <time>2009-10-07T12:09:34Z</time>
      </trkpt>
      <trkpt lat="42.839488" lon="0.130867">
        <ele>2456.0</ele>
        <time>2009-10-07T12:09:50Z</time>
      </trkpt>
      <trkpt lat="42.839435" lon="0.130965">
        <ele>2456.0</ele>
        <time>2009-10-07T12:10:04Z</time>
      </trkpt>
      <trkpt lat="42.839416" lon="0.131091">
        <ele>2456.0</ele>
        <time>2009-10-07T12:10:27Z</time>
      </trkpt>
      <trkpt lat="42.839416" lon="0.131226">
        <ele>2448.0</ele>
        <time>2009-10-07T12:10:49Z</time>
      </trkpt>
      <trkpt lat="42.839495" lon="0.131379">
        <ele>2443.0</ele>
        <time>2009-10-07T12:12:25Z</time>
      </trkpt>
      <trkpt lat="42.839535" lon="0.131495">
        <ele>2437.0</ele>
        <time>2009-10-07T12:12:44Z</time>
      </trkpt>
      <trkpt lat="42.839528" lon="0.131630">
        <ele>2437.0</ele>
        <time>2009-10-07T12:13:28Z</time>
      </trkpt>
      <trkpt lat="42.839502" lon="0.131756">
        <ele>2437.0</ele>
        <time>2009-10-07T12:13:42Z</time>
      </trkpt>
      <trkpt lat="42.839449" lon="0.131855">
        <ele>2437.0</ele>
        <time>2009-10-07T12:13:55Z</time>
      </trkpt>
      <trkpt lat="42.839402" lon="0.131963">
        <ele>2437.0</ele>
        <time>2009-10-07T12:14:24Z</time>
      </trkpt>
      <trkpt lat="42.839396" lon="0.132088">
        <ele>2443.0</ele>
        <time>2009-10-07T12:14:47Z</time>
      </trkpt>
      <trkpt lat="42.839422" lon="0.132205">
        <ele>2443.0</ele>
        <time>2009-10-07T12:14:58Z</time>
      </trkpt>
      <trkpt lat="42.839389" lon="0.132331">
        <ele>2443.0</ele>
        <time>2009-10-07T12:15:45Z</time>
      </trkpt>
      <trkpt lat="42.839363" lon="0.132457">
        <ele>2443.0</ele>
        <time>2009-10-07T12:16:03Z</time>
      </trkpt>
      <trkpt lat="42.839336" lon="0.132573">
        <ele>2451.0</ele>
        <time>2009-10-07T12:16:33Z</time>
      </trkpt>
      <trkpt lat="42.839336" lon="0.132699">
        <ele>2451.0</ele>
        <time>2009-10-07T12:16:52Z</time>
      </trkpt>
      <trkpt lat="42.839330" lon="0.132861">
        <ele>2451.0</ele>
        <time>2009-10-07T12:17:20Z</time>
      </trkpt>
      <trkpt lat="42.839310" lon="0.132987">
        <ele>2451.0</ele>
        <time>2009-10-07T12:17:37Z</time>
      </trkpt>
      <trkpt lat="42.839270" lon="0.133112">
        <ele>2444.0</ele>
        <time>2009-10-07T12:17:56Z</time>
      </trkpt>
      <trkpt lat="42.839277" lon="0.133238">
        <ele>2444.0</ele>
        <time>2009-10-07T12:18:25Z</time>
      </trkpt>
      <trkpt lat="42.839264" lon="0.133364">
        <ele>2444.0</ele>
        <time>2009-10-07T12:18:36Z</time>
      </trkpt>
      <trkpt lat="42.839237" lon="0.133481">
        <ele>2444.0</ele>
        <time>2009-10-07T12:18:52Z</time>
      </trkpt>
      <trkpt lat="42.839211" lon="0.133597">
        <ele>2444.0</ele>
        <time>2009-10-07T12:19:01Z</time>
      </trkpt>
      <trkpt lat="42.839145" lon="0.133714">
        <ele>2444.0</ele>
        <time>2009-10-07T12:19:15Z</time>
      </trkpt>
      <trkpt lat="42.839052" lon="0.133732">
        <ele>2439.0</ele>
        <time>2009-10-07T12:19:43Z</time>
      </trkpt>
      <trkpt lat="42.839032" lon="0.133885">
        <ele>2439.0</ele>
        <time>2009-10-07T12:20:10Z</time>
      </trkpt>
      <trkpt lat="42.839019" lon="0.134011">
        <ele>2433.0</ele>
        <time>2009-10-07T12:21:07Z</time>
      </trkpt>
      <trkpt lat="42.838986" lon="0.134181">
        <ele>2417.0</ele>
        <time>2009-10-07T12:22:51Z</time>
      </trkpt>
      <trkpt lat="42.838893" lon="0.134190">
        <ele>2417.0</ele>
        <time>2009-10-07T12:23:02Z</time>
      </trkpt>
      <trkpt lat="42.838840" lon="0.134298">
        <ele>2417.0</ele>
        <time>2009-10-07T12:23:13Z</time>
      </trkpt>
      <trkpt lat="42.838748" lon="0.134289">
        <ele>2417.0</ele>
        <time>2009-10-07T12:23:24Z</time>
      </trkpt>
      <trkpt lat="42.838662" lon="0.134343">
        <ele>2417.0</ele>
        <time>2009-10-07T12:23:37Z</time>
      </trkpt>
      <trkpt lat="42.838576" lon="0.134388">
        <ele>2412.0</ele>
        <time>2009-10-07T12:23:55Z</time>
      </trkpt>
      <trkpt lat="42.838483" lon="0.134379">
        <ele>2412.0</ele>
        <time>2009-10-07T12:24:09Z</time>
      </trkpt>
      <trkpt lat="42.838397" lon="0.134424">
        <ele>2412.0</ele>
        <time>2009-10-07T12:24:23Z</time>
      </trkpt>
      <trkpt lat="42.838338" lon="0.134523">
        <ele>2412.0</ele>
        <time>2009-10-07T12:24:38Z</time>
      </trkpt>
      <trkpt lat="42.838265" lon="0.134604">
        <ele>2404.0</ele>
        <time>2009-10-07T12:25:08Z</time>
      </trkpt>
      <trkpt lat="42.838179" lon="0.134648">
        <ele>2404.0</ele>
        <time>2009-10-07T12:25:26Z</time>
      </trkpt>
      <trkpt lat="42.838126" lon="0.134747">
        <ele>2392.0</ele>
        <time>2009-10-07T12:25:54Z</time>
      </trkpt>
      <trkpt lat="42.838047" lon="0.134810">
        <ele>2392.0</ele>
        <time>2009-10-07T12:26:15Z</time>
      </trkpt>
      <trkpt lat="42.837994" lon="0.134918">
        <ele>2385.0</ele>
        <time>2009-10-07T12:26:36Z</time>
      </trkpt>
      <trkpt lat="42.837922" lon="0.134990">
        <ele>2378.0</ele>
        <time>2009-10-07T12:26:59Z</time>
      </trkpt>
      <trkpt lat="42.837908" lon="0.135116">
        <ele>2378.0</ele>
        <time>2009-10-07T12:27:20Z</time>
      </trkpt>
      <trkpt lat="42.837855" lon="0.135214">
        <ele>2371.0</ele>
        <time>2009-10-07T12:27:34Z</time>
      </trkpt>
      <trkpt lat="42.837816" lon="0.135331">
        <ele>2364.0</ele>
        <time>2009-10-07T12:28:41Z</time>
      </trkpt>
      <trkpt lat="42.837723" lon="0.135304">
        <ele>2364.0</ele>
        <time>2009-10-07T12:29:30Z</time>
      </trkpt>
      <trkpt lat="42.837670" lon="0.135403">
        <ele>2358.0</ele>
        <time>2009-10-07T12:33:07Z</time>
      </trkpt>
      <trkpt lat="42.837604" lon="0.135493">
        <ele>2358.0</ele>
        <time>2009-10-07T12:33:19Z</time>
      </trkpt>
      <trkpt lat="42.837551" lon="0.135592">
        <ele>2358.0</ele>
        <time>2009-10-07T12:33:40Z</time>
      </trkpt>
      <trkpt lat="42.837412" lon="0.135610">
        <ele>2342.0</ele>
        <time>2009-10-07T12:41:17Z</time>
      </trkpt>
      <trkpt lat="42.837340" lon="0.135538">
        <ele>2351.0</ele>
        <time>2009-10-07T12:41:45Z</time>
      </trkpt>
      <trkpt lat="42.837287" lon="0.135439">
        <ele>2351.0</ele>
        <time>2009-10-07T12:41:58Z</time>
      </trkpt>
      <trkpt lat="42.837234" lon="0.135331">
        <ele>2351.0</ele>
        <time>2009-10-07T12:42:30Z</time>
      </trkpt>
      <trkpt lat="42.837148" lon="0.135367">
        <ele>2351.0</ele>
        <time>2009-10-07T12:42:49Z</time>
      </trkpt>
      <trkpt lat="42.837069" lon="0.135430">
        <ele>2351.0</ele>
        <time>2009-10-07T12:43:11Z</time>
      </trkpt>
      <trkpt lat="42.836983" lon="0.135484">
        <ele>2344.0</ele>
        <time>2009-10-07T12:43:48Z</time>
      </trkpt>
      <trkpt lat="42.836890" lon="0.135475">
        <ele>2344.0</ele>
        <time>2009-10-07T12:44:03Z</time>
      </trkpt>
      <trkpt lat="42.836824" lon="0.135376">
        <ele>2334.0</ele>
        <time>2009-10-07T12:44:20Z</time>
      </trkpt>
      <trkpt lat="42.836732" lon="0.135367">
        <ele>2334.0</ele>
        <time>2009-10-07T12:45:05Z</time>
      </trkpt>
      <trkpt lat="42.836639" lon="0.135358">
        <ele>2334.0</ele>
        <time>2009-10-07T12:45:27Z</time>
      </trkpt>
      <trkpt lat="42.836560" lon="0.135421">
        <ele>2334.0</ele>
        <time>2009-10-07T12:45:48Z</time>
      </trkpt>
      <trkpt lat="42.836507" lon="0.135520">
        <ele>2327.0</ele>
        <time>2009-10-07T12:46:08Z</time>
      </trkpt>
      <trkpt lat="42.836441" lon="0.135619">
        <ele>2320.0</ele>
        <time>2009-10-07T12:46:37Z</time>
      </trkpt>
      <trkpt lat="42.836388" lon="0.135726">
        <ele>2313.0</ele>
        <time>2009-10-07T12:47:09Z</time>
      </trkpt>
      <trkpt lat="42.836328" lon="0.135825">
        <ele>2313.0</ele>
        <time>2009-10-07T12:47:24Z</time>
      </trkpt>
      <trkpt lat="42.836262" lon="0.135915">
        <ele>2313.0</ele>
        <time>2009-10-07T12:47:35Z</time>
      </trkpt>
      <trkpt lat="42.836170" lon="0.135906">
        <ele>2300.0</ele>
        <time>2009-10-07T12:51:45Z</time>
      </trkpt>
      <trkpt lat="42.836097" lon="0.136005">
        <ele>2300.0</ele>
        <time>2009-10-07T12:52:14Z</time>
      </trkpt>
      <trkpt lat="42.836011" lon="0.136041">
        <ele>2288.0</ele>
        <time>2009-10-07T12:52:50Z</time>
      </trkpt>
      <trkpt lat="42.835938" lon="0.136131">
        <ele>2280.0</ele>
        <time>2009-10-07T12:53:11Z</time>
      </trkpt>
      <trkpt lat="42.835852" lon="0.136167">
        <ele>2275.0</ele>
        <time>2009-10-07T12:53:31Z</time>
      </trkpt>
      <trkpt lat="42.835826" lon="0.136283">
        <ele>2275.0</ele>
        <time>2009-10-07T12:53:44Z</time>
      </trkpt>
      <trkpt lat="42.835773" lon="0.136382">
        <ele>2275.0</ele>
        <time>2009-10-07T12:53:59Z</time>
      </trkpt>
      <trkpt lat="42.835766" lon="0.136508">
        <ele>2268.0</ele>
        <time>2009-10-07T12:54:13Z</time>
      </trkpt>
      <trkpt lat="42.835713" lon="0.136607">
        <ele>2268.0</ele>
        <time>2009-10-07T12:54:36Z</time>
      </trkpt>
      <trkpt lat="42.835647" lon="0.136697">
        <ele>2262.0</ele>
        <time>2009-10-07T12:54:48Z</time>
      </trkpt>
      <trkpt lat="42.835614" lon="0.136822">
        <ele>2262.0</ele>
        <time>2009-10-07T12:55:03Z</time>
      </trkpt>
      <trkpt lat="42.835535" lon="0.136903">
        <ele>2262.0</ele>
        <time>2009-10-07T12:55:33Z</time>
      </trkpt>
      <trkpt lat="42.835456" lon="0.136966">
        <ele>2262.0</ele>
        <time>2009-10-07T12:55:43Z</time>
      </trkpt>
      <trkpt lat="42.835389" lon="0.137056">
        <ele>2262.0</ele>
        <time>2009-10-07T12:55:56Z</time>
      </trkpt>
      <trkpt lat="42.835389" lon="0.137191">
        <ele>2257.0</ele>
        <time>2009-10-07T12:56:24Z</time>
      </trkpt>
      <trkpt lat="42.835363" lon="0.137307">
        <ele>2257.0</ele>
        <time>2009-10-07T12:56:48Z</time>
      </trkpt>
      <trkpt lat="42.835409" lon="0.137433">
        <ele>2251.0</ele>
        <time>2009-10-07T12:57:05Z</time>
      </trkpt>
      <trkpt lat="42.835462" lon="0.137532">
        <ele>2251.0</ele>
        <time>2009-10-07T12:57:25Z</time>
      </trkpt>
      <trkpt lat="42.835449" lon="0.137658">
        <ele>2251.0</ele>
        <time>2009-10-07T12:57:36Z</time>
      </trkpt>
      <trkpt lat="42.835462" lon="0.137784">
        <ele>2237.0</ele>
        <time>2009-10-07T12:58:02Z</time>
      </trkpt>
      <trkpt lat="42.835436" lon="0.137909">
        <ele>2237.0</ele>
        <time>2009-10-07T12:58:15Z</time>
      </trkpt>
      <trkpt lat="42.835508" lon="0.137999">
        <ele>2229.0</ele>
        <time>2009-10-07T12:58:44Z</time>
      </trkpt>
      <trkpt lat="42.835535" lon="0.138125">
        <ele>2229.0</ele>
        <time>2009-10-07T12:58:56Z</time>
      </trkpt>
      <trkpt lat="42.835588" lon="0.138224">
        <ele>2221.0</ele>
        <time>2009-10-07T12:59:11Z</time>
      </trkpt>
      <trkpt lat="42.835641" lon="0.138323">
        <ele>2221.0</ele>
        <time>2009-10-07T12:59:23Z</time>
      </trkpt>
      <trkpt lat="42.835694" lon="0.138421">
        <ele>2221.0</ele>
        <time>2009-10-07T12:59:43Z</time>
      </trkpt>
      <trkpt lat="42.835720" lon="0.138538">
        <ele>2215.0</ele>
        <time>2009-10-07T13:00:06Z</time>
      </trkpt>
      <trkpt lat="42.835760" lon="0.138664">
        <ele>2215.0</ele>
        <time>2009-10-07T13:00:16Z</time>
      </trkpt>
      <trkpt lat="42.835793" lon="0.138781">
        <ele>2215.0</ele>
        <time>2009-10-07T13:00:29Z</time>
      </trkpt>
      <trkpt lat="42.835832" lon="0.138898">
        <ele>2215.0</ele>
        <time>2009-10-07T13:00:42Z</time>
      </trkpt>
      <trkpt lat="42.835859" lon="0.139023">
        <ele>2215.0</ele>
        <time>2009-10-07T13:00:55Z</time>
      </trkpt>
      <trkpt lat="42.835912" lon="0.139131">
        <ele>2206.0</ele>
        <time>2009-10-07T13:01:11Z</time>
      </trkpt>
      <trkpt lat="42.835984" lon="0.139230">
        <ele>2206.0</ele>
        <time>2009-10-07T13:01:21Z</time>
      </trkpt>
      <trkpt lat="42.836051" lon="0.139320">
        <ele>2206.0</ele>
        <time>2009-10-07T13:01:38Z</time>
      </trkpt>
      <trkpt lat="42.836143" lon="0.139293">
        <ele>2206.0</ele>
        <time>2009-10-07T13:01:53Z</time>
      </trkpt>
      <trkpt lat="42.836229" lon="0.139329">
        <ele>2200.0</ele>
        <time>2009-10-07T13:02:14Z</time>
      </trkpt>
      <trkpt lat="42.836322" lon="0.139311">
        <ele>2200.0</ele>
        <time>2009-10-07T13:02:27Z</time>
      </trkpt>
      <trkpt lat="42.836368" lon="0.139419">
        <ele>2200.0</ele>
        <time>2009-10-07T13:02:37Z</time>
      </trkpt>
      <trkpt lat="42.836454" lon="0.139463">
        <ele>2200.0</ele>
        <time>2009-10-07T13:03:23Z</time>
      </trkpt>
      <trkpt lat="42.836546" lon="0.139463">
        <ele>2200.0</ele>
        <time>2009-10-07T13:03:39Z</time>
      </trkpt>
      <trkpt lat="42.836639" lon="0.139490">
        <ele>2195.0</ele>
        <time>2009-10-07T13:03:53Z</time>
      </trkpt>
      <trkpt lat="42.836725" lon="0.139526">
        <ele>2195.0</ele>
        <time>2009-10-07T13:04:08Z</time>
      </trkpt>
      <trkpt lat="42.836817" lon="0.139517">
        <ele>2188.0</ele>
        <time>2009-10-07T13:04:21Z</time>
      </trkpt>
      <trkpt lat="42.836917" lon="0.139490">
        <ele>2188.0</ele>
        <time>2009-10-07T13:04:46Z</time>
      </trkpt>
      <trkpt lat="42.837009" lon="0.139535">
        <ele>2188.0</ele>
        <time>2009-10-07T13:05:00Z</time>
      </trkpt>
      <trkpt lat="42.837089" lon="0.139598">
        <ele>2179.0</ele>
        <time>2009-10-07T13:05:20Z</time>
      </trkpt>
      <trkpt lat="42.837174" lon="0.139661">
        <ele>2179.0</ele>
        <time>2009-10-07T13:05:34Z</time>
      </trkpt>
      <trkpt lat="42.837267" lon="0.139679">
        <ele>2171.0</ele>
        <time>2009-10-07T13:05:47Z</time>
      </trkpt>
      <trkpt lat="42.837360" lon="0.139661">
        <ele>2171.0</ele>
        <time>2009-10-07T13:05:57Z</time>
      </trkpt>
      <trkpt lat="42.837432" lon="0.139742">
        <ele>2164.0</ele>
        <time>2009-10-07T13:06:10Z</time>
      </trkpt>
      <trkpt lat="42.837525" lon="0.139742">
        <ele>2164.0</ele>
        <time>2009-10-07T13:06:20Z</time>
      </trkpt>
      <trkpt lat="42.837611" lon="0.139778">
        <ele>2164.0</ele>
        <time>2009-10-07T13:06:28Z</time>
      </trkpt>
      <trkpt lat="42.837677" lon="0.139886">
        <ele>2159.0</ele>
        <time>2009-10-07T13:06:40Z</time>
      </trkpt>
      <trkpt lat="42.837710" lon="0.140002">
        <ele>2154.0</ele>
        <time>2009-10-07T13:06:52Z</time>
      </trkpt>
      <trkpt lat="42.837809" lon="0.139984">
        <ele>2154.0</ele>
        <time>2009-10-07T13:07:07Z</time>
      </trkpt>
      <trkpt lat="42.837902" lon="0.140002">
        <ele>2154.0</ele>
        <time>2009-10-07T13:07:22Z</time>
      </trkpt>
      <trkpt lat="42.837948" lon="0.140119">
        <ele>2148.0</ele>
        <time>2009-10-07T13:07:34Z</time>
      </trkpt>
      <trkpt lat="42.838001" lon="0.140227">
        <ele>2148.0</ele>
        <time>2009-10-07T13:07:45Z</time>
      </trkpt>
      <trkpt lat="42.838034" lon="0.140353">
        <ele>2148.0</ele>
        <time>2009-10-07T13:07:54Z</time>
      </trkpt>
      <trkpt lat="42.838074" lon="0.140470">
        <ele>2148.0</ele>
        <time>2009-10-07T13:08:02Z</time>
      </trkpt>
      <trkpt lat="42.838126" lon="0.140568">
        <ele>2148.0</ele>
        <time>2009-10-07T13:08:09Z</time>
      </trkpt>
      <trkpt lat="42.838159" lon="0.140685">
        <ele>2148.0</ele>
        <time>2009-10-07T13:08:16Z</time>
      </trkpt>
      <trkpt lat="42.838199" lon="0.140811">
        <ele>2148.0</ele>
        <time>2009-10-07T13:08:24Z</time>
      </trkpt>
      <trkpt lat="42.838245" lon="0.140919">
        <ele>2148.0</ele>
        <time>2009-10-07T13:08:31Z</time>
      </trkpt>
      <trkpt lat="42.838312" lon="0.141018">
        <ele>2148.0</ele>
        <time>2009-10-07T13:08:41Z</time>
      </trkpt>
      <trkpt lat="42.838404" lon="0.141044">
        <ele>2141.0</ele>
        <time>2009-10-07T13:08:58Z</time>
      </trkpt>
      <trkpt lat="42.838490" lon="0.141089">
        <ele>2141.0</ele>
        <time>2009-10-07T13:09:12Z</time>
      </trkpt>
      <trkpt lat="42.838569" lon="0.141152">
        <ele>2149.0</ele>
        <time>2009-10-07T13:09:19Z</time>
      </trkpt>
      <trkpt lat="42.838622" lon="0.141251">
        <ele>2149.0</ele>
        <time>2009-10-07T13:09:28Z</time>
      </trkpt>
      <trkpt lat="42.838675" lon="0.141359">
        <ele>2149.0</ele>
        <time>2009-10-07T13:09:35Z</time>
      </trkpt>
      <trkpt lat="42.838721" lon="0.141476">
        <ele>2149.0</ele>
        <time>2009-10-07T13:09:44Z</time>
      </trkpt>
      <trkpt lat="42.838754" lon="0.141592">
        <ele>2149.0</ele>
        <time>2009-10-07T13:09:51Z</time>
      </trkpt>
      <trkpt lat="42.838768" lon="0.141718">
        <ele>2149.0</ele>
        <time>2009-10-07T13:10:02Z</time>
      </trkpt>
      <trkpt lat="42.838761" lon="0.141844">
        <ele>2149.0</ele>
        <time>2009-10-07T13:10:08Z</time>
      </trkpt>
      <trkpt lat="42.838748" lon="0.141979">
        <ele>2149.0</ele>
        <time>2009-10-07T13:10:19Z</time>
      </trkpt>
      <trkpt lat="42.838754" lon="0.142122">
        <ele>2142.0</ele>
        <time>2009-10-07T13:10:28Z</time>
      </trkpt>
      <trkpt lat="42.838748" lon="0.142248">
        <ele>2142.0</ele>
        <time>2009-10-07T13:10:34Z</time>
      </trkpt>
      <trkpt lat="42.838741" lon="0.142374">
        <ele>2142.0</ele>
        <time>2009-10-07T13:10:41Z</time>
      </trkpt>
      <trkpt lat="42.838741" lon="0.142509">
        <ele>2142.0</ele>
        <time>2009-10-07T13:10:50Z</time>
      </trkpt>
      <trkpt lat="42.838748" lon="0.142635">
        <ele>2142.0</ele>
        <time>2009-10-07T13:10:58Z</time>
      </trkpt>
      <trkpt lat="42.838748" lon="0.142769">
        <ele>2142.0</ele>
        <time>2009-10-07T13:11:06Z</time>
      </trkpt>
      <trkpt lat="42.838774" lon="0.142886">
        <ele>2142.0</ele>
        <time>2009-10-07T13:11:14Z</time>
      </trkpt>
      <trkpt lat="42.838821" lon="0.143012">
        <ele>2142.0</ele>
        <time>2009-10-07T13:11:22Z</time>
      </trkpt>
      <trkpt lat="42.838873" lon="0.143120">
        <ele>2142.0</ele>
        <time>2009-10-07T13:11:30Z</time>
      </trkpt>
      <trkpt lat="42.838953" lon="0.143200">
        <ele>2149.0</ele>
        <time>2009-10-07T13:12:07Z</time>
      </trkpt>
      <trkpt lat="42.839006" lon="0.143299">
        <ele>2149.0</ele>
        <time>2009-10-07T13:12:16Z</time>
      </trkpt>
      <trkpt lat="42.839059" lon="0.143398">
        <ele>2149.0</ele>
        <time>2009-10-07T13:12:23Z</time>
      </trkpt>
      <trkpt lat="42.839125" lon="0.143497">
        <ele>2141.0</ele>
        <time>2009-10-07T13:12:31Z</time>
      </trkpt>
      <trkpt lat="42.839184" lon="0.143596">
        <ele>2141.0</ele>
        <time>2009-10-07T13:12:39Z</time>
      </trkpt>
      <trkpt lat="42.839230" lon="0.143712">
        <ele>2141.0</ele>
        <time>2009-10-07T13:12:48Z</time>
      </trkpt>
      <trkpt lat="42.839409" lon="0.143686">
        <ele>2147.0</ele>
        <time>2009-10-07T13:13:09Z</time>
      </trkpt>
      <trkpt lat="42.839488" lon="0.143623">
        <ele>2159.0</ele>
        <time>2009-10-07T13:13:16Z</time>
      </trkpt>
      <trkpt lat="42.839594" lon="0.143596">
        <ele>2159.0</ele>
        <time>2009-10-07T13:13:25Z</time>
      </trkpt>
      <trkpt lat="42.839693" lon="0.143605">
        <ele>2167.0</ele>
        <time>2009-10-07T13:13:36Z</time>
      </trkpt>
      <trkpt lat="42.839786" lon="0.143641">
        <ele>2167.0</ele>
        <time>2009-10-07T13:13:44Z</time>
      </trkpt>
      <trkpt lat="42.839885" lon="0.143668">
        <ele>2160.0</ele>
        <time>2009-10-07T13:13:54Z</time>
      </trkpt>
      <trkpt lat="42.839978" lon="0.143677">
        <ele>2160.0</ele>
        <time>2009-10-07T13:14:05Z</time>
      </trkpt>
      <trkpt lat="42.840070" lon="0.143703">
        <ele>2152.0</ele>
        <time>2009-10-07T13:14:15Z</time>
      </trkpt>
      <trkpt lat="42.840163" lon="0.143712">
        <ele>2152.0</ele>
        <time>2009-10-07T13:14:21Z</time>
      </trkpt>
      <trkpt lat="42.840255" lon="0.143712">
        <ele>2152.0</ele>
        <time>2009-10-07T13:14:29Z</time>
      </trkpt>
      <trkpt lat="42.840334" lon="0.143784">
        <ele>2152.0</ele>
        <time>2009-10-07T13:14:39Z</time>
      </trkpt>
      <trkpt lat="42.840407" lon="0.143703">
        <ele>2152.0</ele>
        <time>2009-10-07T13:14:50Z</time>
      </trkpt>
      <trkpt lat="42.840500" lon="0.143748">
        <ele>2152.0</ele>
        <time>2009-10-07T13:14:58Z</time>
      </trkpt>
      <trkpt lat="42.840506" lon="0.143883">
        <ele>2152.0</ele>
        <time>2009-10-07T13:15:09Z</time>
      </trkpt>
    </trkseg>
  </trk>
</gpx>

